Data for 08/12/2012

Time Sea-Level Adjusted Pressure Absolute Pressure Temperature Relative Humidity Dew Point Precipitation   
(mb) (inHg) (mb) (inHg) (C) (F) (%) (C) (F) (mm) (in)
00:01 1023 30.21 852 25.16 17.1 62.7 49 6.5 43.7 0 0
00:02 1023 30.21 852 25.16 17 62.7 50 6.6 43.9 0 0
00:03 1023 30.21 852 25.16 17 62.6 50 6.7 44.1 0 0
00:04 1023 30.21 852 25.16 16.9 62.4 50 6.5 43.8 0 0
00:05 1023 30.21 852 25.16 16.9 62.4 50 6.6 43.9 0 0
00:06 1023 30.21 852 25.16 16.9 62.4 50 6.6 43.8 0 0
00:07 1023 30.21 852 25.16 16.9 62.4 50 6.5 43.8 0 0
00:08 1023 30.21 852 25.16 16.9 62.4 51 6.7 44 0 0
00:09 1023 30.21 852 25.16 16.8 62.3 51 6.7 44 0 0
00:10 1023 30.21 852 25.16 16.8 62.3 51 6.7 44 0 0
00:11 1023 30.21 852 25.16 16.9 62.5 50 6.5 43.8 0 0
00:12 1023 30.21 852 25.16 17.1 62.7 50 6.7 44.1 0 0
00:13 1023 30.21 852 25.16 17.1 62.7 50 6.6 43.8 0 0
00:14 1023 30.21 852 25.16 17.1 62.7 50 6.7 44 0 0
00:15 1023 30.21 852 25.16 17.2 62.9 50 6.7 44 0 0
00:16 1023 30.21 852 25.16 17.3 63.2 50 6.8 44.2 0 0
00:17 1023 30.21 852 25.16 17.5 63.4 49 6.6 43.9 0 0
00:18 1023 30.21 852 25.16 17.7 63.8 49 6.8 44.3 0 0
00:19 1023 30.21 852 25.16 17.9 64.2 48 6.8 44.2 0 0
00:20 1023 30.21 852 25.16 18 64.4 47 6.8 44.2 0 0
00:21 1023 30.21 852 25.16 18.1 64.6 47 6.7 44.1 0 0
00:22 1023 30.21 852 25.16 18.2 64.7 47 6.7 44 0 0
00:23 1023 30.21 852 25.16 18.3 64.9 46 6.7 44 0 0
00:24 1023 30.21 852 25.16 18.4 65.1 46 6.7 44 0 0
00:25 1023 30.21 852 25.16 18.6 65.4 45 6.5 43.7 0 0
00:26 1023 30.21 852 25.16 18.8 65.8 44 6.4 43.5 0 0
00:27 1023 30.21 853 25.19 18.9 66.1 44 6.7 44 0 0
00:28 1023 30.21 852 25.16 18.9 66 45 6.8 44.2 0 0
00:29 1023 30.21 853 25.19 18.9 66 45 6.7 44 0 0
00:30 1023 30.21 853 25.19 18.9 66 43 6.4 43.4 0 0
00:31 1023 30.21 853 25.19 19 66.2 44 6.5 43.7 0 0
00:32 1023 30.21 853 25.19 19.1 66.3 44 6.6 43.9 0 0
00:33 1023 30.21 853 25.19 19.1 66.4 44 6.6 44 0 0
00:34 1023 30.21 853 25.19 19.1 66.3 44 6.5 43.7 0 0
00:35 1023 30.21 853 25.19 19.1 66.4 43 6.5 43.7 0 0
00:36 1023 30.21 853 25.19 19.1 66.3 44 6.7 44.1 0 0
00:37 1023 30.21 853 25.19 18.9 66.1 44 6.6 43.9 0 0
00:38 1023 30.21 853 25.19 19 66.1 45 6.8 44.2 0 0
00:39 1023 30.21 853 25.19 18.9 65.9 44 6.6 43.8 0 0
00:40 1023 30.21 853 25.19 18.8 65.8 45 6.7 44 0 0
00:41 1023 30.21 853 25.19 18.7 65.6 45 6.7 44.1 0 0
00:42 1023 30.21 853 25.19 18.6 65.6 45 6.6 44 0 0
00:43 1023 30.21 853 25.19 18.7 65.6 45 6.6 43.9 0 0
00:44 1023 30.21 853 25.19 18.7 65.7 45 6.5 43.8 0 0
00:45 1023 30.21 853 25.19 18.8 65.8 45 6.7 44.1 0 0
00:46 1023 30.21 853 25.19 18.7 65.6 45 6.8 44.2 0 0
00:47 1023 30.21 853 25.19 18.6 65.5 46 6.9 44.3 0 0
00:48 1023 30.21 853 25.19 18.5 65.3 46 6.9 44.4 0 0
00:49 1023 30.21 853 25.19 18.4 65.1 47 6.9 44.5 0 0
00:50 1023 30.21 853 25.19 18.2 64.8 47 7 44.5 0 0
00:51 1023 30.21 853 25.19 18.1 64.6 47 6.8 44.3 0 0
00:52 1023 30.21 853 25.19 18.1 64.6 47 6.8 44.3 0 0
00:53 1023 30.21 853 25.19 18.1 64.6 48 6.9 44.5 0 0
00:54 1023 30.21 853 25.19 18.2 64.7 47 6.9 44.4 0 0
00:55 1023 30.21 853 25.19 18.1 64.7 48 6.9 44.5 0 0
00:56 1023 30.21 853 25.19 18 64.5 48 7 44.7 0 0
00:57 1024 30.24 853 25.19 18 64.4 48 6.9 44.4 0 0
00:58 1024 30.24 853 25.19 18 64.4 48 6.9 44.4 0 0
00:59 1024 30.24 853 25.19 18.1 64.6 48 7 44.6 0 0
01:00 1024 30.24 853 25.19 18.1 64.6 48 7 44.7 0 0
01:01 1024 30.24 853 25.19 18.1 64.5 47 6.9 44.3 0 0
01:02 1024 30.24 853 25.19 18.2 64.7 47 6.9 44.5 0 0
01:03 1024 30.24 853 25.19 18.2 64.7 47 6.9 44.5 0 0
01:04 1024 30.24 853 25.19 18.2 64.7 48 7 44.6 0 0
01:05 1024 30.24 853 25.19 18.2 64.7 48 7.1 44.7 0 0
01:06 1024 30.24 853 25.19 18.1 64.6 48 7.1 44.8 0 0
01:07 1024 30.24 853 25.19 18.1 64.5 48 7.1 44.8 0 0
01:08 1024 30.24 853 25.19 18 64.3 49 7.2 45 0 0
01:09 1024 30.24 853 25.19 17.9 64.3 49 7.1 44.9 0 0
01:10 1024 30.24 853 25.19 18 64.4 48 6.9 44.4 0 0
01:11 1024 30.24 853 25.19 18.1 64.7 48 7 44.6 0 0
01:12 1024 30.24 853 25.19 18.2 64.7 48 7 44.6 0 0
01:13 1024 30.24 853 25.19 18.2 64.8 48 7.1 44.7 0 0
01:14 1024 30.24 853 25.19 18.3 65 48 7.1 44.8 0 0
01:15 1024 30.24 853 25.19 18.3 64.9 47 7 44.6 0 0
01:16 1024 30.24 853 25.19 18.3 65 47 7 44.7 0 0
01:17 1024 30.24 853 25.19 18.4 65.2 47 7 44.6 0 0
01:18 1024 30.24 853 25.19 18.5 65.4 47 7 44.6 0 0
01:19 1024 30.24 853 25.19 18.6 65.4 46 7 44.6 0 0
01:20 1024 30.24 853 25.19 18.7 65.6 46 6.9 44.4 0 0
01:21 1024 30.24 853 25.19 18.8 65.8 46 6.9 44.5 0 0
01:22 1024 30.24 853 25.19 18.9 66 45 6.9 44.4 0 0
01:23 1024 30.24 853 25.19 18.9 66 46 7.1 44.7 0 0
01:24 1024 30.24 853 25.19 18.9 66 45 7 44.6 0 0
01:25 1024 30.24 853 25.19 18.9 66.1 45 6.9 44.4 0 0
01:26 1024 30.24 853 25.19 19 66.2 45 6.9 44.4 0 0
01:27 1024 30.24 853 25.19 19 66.3 45 6.9 44.4 0 0
01:28 1024 30.24 853 25.19 19 66.2 45 7 44.6 0 0
01:29 1024 30.24 853 25.19 19 66.1 45 6.8 44.2 0 0
01:30 1024 30.24 853 25.19 19 66.2 45 7 44.6 0 0
01:31 1024 30.24 853 25.19 18.9 66 45 6.9 44.5 0 0
01:32 1024 30.24 853 25.19 18.8 65.9 46 7 44.6 0 0
01:33 1024 30.24 853 25.19 18.8 65.8 46 7 44.6 0 0
01:34 1024 30.24 853 25.19 18.7 65.7 46 7 44.5 0 0
01:35 1024 30.24 853 25.19 18.8 65.9 45 6.9 44.4 0 0
01:36 1024 30.24 853 25.19 18.9 65.9 45 6.8 44.2 0 0
01:37 1024 30.24 853 25.19 19 66.1 45 6.9 44.5 0 0
01:38 1024 30.24 853 25.19 19.1 66.4 44 6.8 44.2 0 0
01:39 1024 30.24 853 25.19 19.2 66.6 44 6.8 44.3 0 0
01:40 1024 30.24 853 25.19 19.3 66.7 44 6.9 44.4 0 0
01:41 1024 30.24 853 25.19 19.2 66.6 44 7 44.5 0 0
01:42 1024 30.24 853 25.19 19.1 66.4 45 7.1 44.7 0 0
01:43 1024 30.24 853 25.19 19.1 66.3 45 6.9 44.5 0 0
01:44 1024 30.24 853 25.19 19.1 66.4 45 7.1 44.7 0 0
01:45 1024 30.24 853 25.19 19 66.2 45 7 44.5 0 0
01:46 1024 30.24 853 25.19 19 66.3 45 6.9 44.5 0 0
01:47 1024 30.24 853 25.19 19 66.1 45 6.8 44.3 0 0
01:48 1024 30.24 853 25.19 19 66.2 45 7 44.6 0 0
01:49 1024 30.24 853 25.19 19 66.1 46 7.1 44.8 0 0
01:50 1024 30.24 853 25.19 18.9 65.9 46 7.1 44.8 0 0
01:51 1024 30.24 853 25.19 18.8 65.8 46 7 44.6 0 0
01:52 1024 30.24 853 25.19 18.8 65.8 46 7 44.6 0 0
01:53 1024 30.24 853 25.19 18.8 65.9 46 7 44.7 0 0
01:54 1024 30.24 853 25.19 18.8 65.9 46 7.1 44.8 0 0
01:55 1024 30.24 853 25.19 18.8 65.8 46 7 44.6 0 0
01:56 1024 30.24 853 25.19 18.8 65.8 46 7.1 44.7 0 0
01:57 1024 30.24 853 25.19 18.8 65.8 46 7.1 44.9 0 0
01:58 1024 30.24 853 25.19 18.7 65.7 46 7.1 44.7 0 0
01:59 1024 30.24 853 25.19 18.7 65.7 46 7 44.5 0 0
02:00 1024 30.24 853 25.19 18.8 65.8 46 7.1 44.9 0 0
02:01 1024 30.24 853 25.19 18.8 65.8 46 7 44.6 0 0
02:02 1024 30.24 853 25.19 18.8 65.8 46 7.1 44.7 0 0
02:03 1024 30.24 853 25.19 18.7 65.7 46 7.1 44.8 0 0
02:04 1024 30.24 853 25.19 18.6 65.6 47 7.2 44.9 0 0
02:05 1024 30.24 853 25.19 18.6 65.5 46 7 44.6 0 0
02:06 1024 30.24 853 25.19 18.7 65.6 46 7.1 44.8 0 0
02:07 1024 30.24 853 25.19 18.7 65.6 47 7.2 44.9 0 0
02:08 1024 30.24 853 25.19 18.6 65.6 46 7.1 44.7 0 0
02:09 1024 30.24 853 25.19 18.6 65.5 47 7.2 45 0 0
02:10 1024 30.24 853 25.19 18.6 65.4 47 7.1 44.7 0 0
02:11 1024 30.24 853 25.19 18.5 65.4 48 7.3 45.2 0 0
02:12 1024 30.24 853 25.19 18.4 65.1 48 7.3 45.1 0 0
02:13 1024 30.24 853 25.19 18.4 65 48 7.2 45 0 0
02:14 1024 30.24 853 25.19 18.4 65.1 48 7.2 45 0 0
02:15 1024 30.24 853 25.19 18.3 65 48 7.2 45 0 0
02:16 1024 30.24 853 25.19 18.2 64.8 48 7.1 44.8 0 0
02:17 1024 30.24 853 25.19 18.2 64.8 49 7.4 45.3 0 0
02:18 1024 30.24 853 25.19 18 64.4 50 7.5 45.5 0 0
02:19 1024 30.24 853 25.19 17.8 64.1 50 7.5 45.5 0 0
02:20 1024 30.24 853 25.19 17.6 63.6 51 7.3 45.1 0 0
02:21 1024 30.24 853 25.19 17.2 62.9 52 7.2 45 0 0
02:22 1024 30.24 853 25.19 16.8 62.3 53 7.2 45 0 0
02:23 1024 30.24 853 25.19 16.5 61.8 54 7.2 44.9 0 0
02:24 1024 30.24 853 25.19 16.3 61.4 54 7.2 44.9 0 0
02:25 1024 30.24 853 25.19 16.3 61.3 54 7.2 44.9 0 0
02:26 1024 30.24 853 25.19 16.2 61.1 55 7.2 45 0 0
02:27 1024 30.24 853 25.19 16.2 61.1 55 7.3 45.1 0 0
02:28 1024 30.24 853 25.19 16.1 60.9 56 7.3 45.1 0 0
02:29 1024 30.24 853 25.19 15.9 60.7 56 7.2 44.9 0 0
02:30 1024 30.24 853 25.19 15.9 60.6 56 7.2 45 0 0
02:31 1024 30.24 853 25.19 15.9 60.6 56 7.2 45 0 0
02:32 1024 30.24 853 25.19 15.9 60.6 56 7.3 45.1 0 0
02:33 1024 30.24 853 25.19 15.9 60.7 56 7.3 45.1 0 0
02:34 1024 30.24 853 25.19 16.1 60.9 56 7.3 45.1 0 0
02:35 1024 30.24 853 25.19 16.2 61.1 55 7.3 45.1 0 0
02:36 1024 30.24 853 25.19 16.3 61.4 55 7.4 45.3 0 0
02:37 1024 30.24 853 25.19 16.4 61.6 55 7.4 45.3 0 0
02:38 1024 30.24 853 25.19 16.5 61.8 55 7.5 45.5 0 0
02:39 1024 30.24 853 25.19 16.5 61.6 55 7.4 45.2 0 0
02:40 1024 30.24 853 25.19 16.4 61.5 54 7.3 45.1 0 0
02:41 1024 30.24 853 25.19 16.5 61.7 54 7.1 44.9 0 0
02:42 1024 30.24 853 25.19 16.5 61.6 54 7.3 45.1 0 0
02:43 1024 30.24 853 25.19 15.9 60.7 56 7.2 45 0 0
02:44 1024 30.24 853 25.19 15.5 59.9 57 7 44.7 0 0
02:45 1024 30.24 853 25.19 15 59 58 7 44.6 0 0
02:46 1024 30.24 853 25.19 14.6 58.3 60 7 44.6 0 0
02:47 1024 30.24 853 25.19 14.4 57.9 61 7 44.7 0 0
02:48 1024 30.24 853 25.19 14.4 57.9 61 7.1 44.8 0 0
02:49 1024 30.24 853 25.19 14.4 58 61 7.1 44.8 0 0
02:50 1024 30.24 853 25.19 14.4 57.9 61 7.1 44.8 0 0
02:51 1024 30.24 853 25.19 14.6 58.3 61 7.2 44.9 0 0
02:52 1024 30.24 853 25.19 14.7 58.5 60 7.1 44.8 0 0
02:53 1024 30.24 853 25.19 14.8 58.7 59 7.1 44.7 0 0
02:54 1024 30.24 853 25.19 14.9 58.8 59 7.1 44.8 0 0
02:55 1024 30.24 853 25.19 14.7 58.5 60 7.1 44.9 0 0
02:56 1024 30.24 853 25.19 14.7 58.5 60 7.2 45 0 0
02:57 1024 30.24 853 25.19 14.8 58.6 60 7.2 45 0 0
02:58 1024 30.24 853 25.19 14.9 58.8 60 7.3 45.1 0 0
02:59 1024 30.24 853 25.19 15.1 59.1 59 7.2 44.9 0 0
03:00 1024 30.24 853 25.19 15.3 59.5 58 7.2 44.9 0 0
03:01 1024 30.24 853 25.19 15.2 59.4 57 6.9 44.4 0 0
03:02 1024 30.24 853 25.19 15.1 59.2 58 7 44.6 0 0
03:03 1024 30.24 853 25.19 14.8 58.7 59 7 44.6 0 0
03:04 1024 30.24 853 25.19 14.5 58.1 59 6.8 44.2 0 0
03:05 1024 30.24 853 25.19 14.4 57.8 60 6.8 44.2 0 0
03:06 1024 30.24 853 25.19 14.3 57.7 61 6.9 44.4 0 0
03:07 1024 30.24 853 25.19 14.3 57.7 61 6.8 44.3 0 0
03:08 1024 30.24 853 25.19 14.3 57.7 61 6.8 44.3 0 0
03:09 1024 30.24 853 25.19 14.3 57.8 61 6.9 44.5 0 0
03:10 1024 30.24 853 25.19 14.4 57.8 61 7 44.7 0 0
03:11 1024 30.24 853 25.19 14.4 57.8 61 7.1 44.8 0 0
03:12 1024 30.24 853 25.19 14.4 58 61 7.1 44.8 0 0
03:13 1024 30.24 853 25.19 14.6 58.2 61 7.2 44.9 0 0
03:14 1024 30.24 853 25.19 14.7 58.4 61 7.3 45.1 0 0
03:15 1024 30.24 854 25.22 14.7 58.4 61 7.3 45.1 0 0
03:16 1024 30.24 854 25.22 14.8 58.6 60 7.2 45 0 0
03:17 1024 30.24 854 25.22 15.1 59.2 59 7.2 44.9 0 0
03:18 1024 30.24 854 25.22 15.4 59.8 58 7.2 45 0 0
03:19 1024 30.24 854 25.22 15.5 59.9 58 7.3 45.2 0 0
03:20 1024 30.24 854 25.22 15.6 60 58 7.5 45.5 0 0
03:21 1024 30.24 854 25.22 15.6 60 58 7.5 45.5 0 0
03:22 1024 30.24 854 25.22 15.5 59.9 59 7.6 45.7 0 0
03:23 1024 30.24 854 25.22 15.3 59.6 60 7.7 45.8 0 0
03:24 1024 30.24 854 25.22 15.1 59.2 60 7.5 45.5 0 0
03:25 1024 30.24 854 25.22 15.1 59.1 59 7.2 45 0 0
03:26 1024 30.24 854 25.22 15.1 59.2 59 7.3 45.1 0 0
03:27 1024 30.24 854 25.22 15.1 59.2 59 7.3 45.1 0 0
03:28 1024 30.24 854 25.22 15.1 59.2 59 7.3 45.1 0 0
03:29 1025 30.27 854 25.22 15 58.9 59 7.1 44.8 0 0
03:30 1025 30.27 854 25.22 14.8 58.7 60 7.1 44.8 0 0
03:31 1025 30.27 854 25.22 14.7 58.4 61 7.2 45 0 0
03:32 1025 30.27 854 25.22 14.5 58.1 61 7.2 44.9 0 0
03:33 1025 30.27 854 25.22 14.3 57.8 61 7 44.6 0 0
03:34 1025 30.27 854 25.22 14.3 57.7 61 7 44.5 0 0
03:35 1025 30.27 854 25.22 14.3 57.8 61 6.9 44.5 0 0
03:36 1025 30.27 854 25.22 14.3 57.8 61 6.9 44.4 0 0
03:37 1025 30.27 854 25.22 14.5 58.1 60 6.8 44.3 0 0
03:38 1025 30.27 854 25.22 14.7 58.4 59 6.9 44.5 0 0
03:39 1025 30.27 854 25.22 14.8 58.6 59 7 44.6 0 0
03:40 1025 30.27 854 25.22 14.8 58.7 58 6.8 44.3 0 0
03:41 1025 30.27 854 25.22 14.9 58.8 58 6.8 44.3 0 0
03:42 1025 30.27 854 25.22 14.9 58.8 58 6.8 44.3 0 0
03:43 1025 30.27 854 25.22 15 58.9 58 6.9 44.4 0 0
03:44 1025 30.27 854 25.22 15 58.9 58 6.9 44.4 0 0
03:45 1025 30.27 854 25.22 14.9 58.8 59 6.9 44.5 0 0
03:46 1025 30.27 854 25.22 14.9 58.8 59 6.9 44.5 0 0
03:47 1025 30.27 854 25.22 14.8 58.7 59 6.9 44.4 0 0
03:48 1025 30.27 854 25.22 14.8 58.7 59 6.9 44.4 0 0
03:49 1025 30.27 854 25.22 14.9 58.8 58 6.9 44.4 0 0
03:50 1025 30.27 854 25.22 14.9 58.8 58 6.9 44.4 0 0
03:51 1025 30.27 854 25.22 14.9 58.8 58 6.8 44.3 0 0
03:52 1025 30.27 854 25.22 14.9 58.9 58 6.8 44.3 0 0
03:53 1025 30.27 854 25.22 15 58.9 58 6.8 44.3 0 0
03:54 1025 30.27 854 25.22 15 58.9 58 6.8 44.3 0 0
03:55 1025 30.27 854 25.22 15 59 57 6.7 44.1 0 0
03:56 1025 30.27 854 25.22 15.1 59.1 57 6.8 44.2 0 0
03:57 1025 30.27 854 25.22 15 59 58 6.9 44.4 0 0
03:58 1025 30.27 854 25.22 14.2 57.6 60 6.7 44 0 0
03:59 1025 30.27 854 25.22 13.3 56 64 6.6 43.9 0 0
04:00 1025 30.27 854 25.22 12.6 54.8 66 6.5 43.7 0 0
04:01 1025 30.27 854 25.22 12 53.6 68 6.3 43.4 0 0
04:02 1025 30.27 854 25.22 11.5 52.7 69 6.1 43 0 0
04:03 1025 30.27 854 25.22 11.1 52.1 70 5.9 42.7 0 0
04:04 1025 30.27 854 25.22 10.9 51.7 71 5.8 42.5 0 0
04:05 1025 30.27 854 25.22 10.8 51.4 72 5.9 42.5 0 0
04:06 1025 30.27 854 25.22 10.6 51 73 5.9 42.7 0 0
04:07 1025 30.27 854 25.22 10.4 50.8 73 5.8 42.5 0 0
04:08 1025 30.27 854 25.22 10.3 50.6 74 5.8 42.5 0 0
04:09 1025 30.27 854 25.22 10.3 50.5 74 5.8 42.4 0 0
04:10 1025 30.27 854 25.22 10.3 50.5 73 5.8 42.4 0 0
04:11 1025 30.27 854 25.22 10.3 50.5 73 5.8 42.4 0 0
04:12 1025 30.27 854 25.22 10.3 50.5 74 5.8 42.5 0 0
04:13 1025 30.27 854 25.22 10.1 50.2 74 5.7 42.3 0 0
04:14 1025 30.27 854 25.22 9.9 49.9 75 5.7 42.2 0 0
04:15 1025 30.27 854 25.22 9.9 49.8 75 5.7 42.2 0 0
04:16 1025 30.27 854 25.22 9.9 49.8 75 5.7 42.2 0 0
04:17 1025 30.27 854 25.22 9.8 49.7 75 5.7 42.3 0 0
04:18 1025 30.27 854 25.22 9.7 49.5 76 5.7 42.3 0 0
04:19 1025 30.27 854 25.22 9.7 49.4 76 5.7 42.2 0 0
04:20 1025 30.27 854 25.22 9.6 49.3 76 5.6 42 0 0
04:21 1025 30.27 854 25.22 9.6 49.3 75 5.5 41.8 0 0
04:22 1025 30.27 854 25.22 9.7 49.5 74 5.4 41.8 0 0
04:23 1025 30.27 854 25.22 9.8 49.6 74 5.4 41.8 0 0
04:24 1025 30.27 854 25.22 9.8 49.7 74 5.5 41.8 0 0
04:25 1025 30.27 854 25.22 9.8 49.6 74 5.4 41.8 0 0
04:26 1025 30.27 854 25.22 9.8 49.7 74 5.4 41.8 0 0
04:27 1025 30.27 854 25.22 9.9 49.8 73 5.3 41.6 0 0
04:28 1025 30.27 854 25.22 10 50 72 5.3 41.5 0 0
04:29 1025 30.27 854 25.22 10.1 50.2 72 5.3 41.6 0 0
04:30 1025 30.27 854 25.22 10.1 50.2 72 5.3 41.6 0 0
04:31 1025 30.27 854 25.22 10.1 50.1 72 5.3 41.5 0 0
04:32 1025 30.27 854 25.22 10.1 50.1 72 5.3 41.5 0 0
04:33 1025 30.27 854 25.22 10.1 50.2 72 5.3 41.5 0 0
04:34 1025 30.27 854 25.22 10.1 50.2 72 5.3 41.5 0 0
04:35 1025 30.27 854 25.22 10 50.1 73 5.4 41.6 0 0
04:36 1025 30.27 854 25.22 9.9 49.7 73 5.3 41.6 0 0
04:37 1025 30.27 854 25.22 9.7 49.4 74 5.4 41.7 0 0
04:38 1025 30.27 854 25.22 9.6 49.2 75 5.3 41.6 0 0
04:39 1025 30.27 854 25.22 9.6 49.2 75 5.4 41.7 0 0
04:40 1025 30.27 854 25.22 9.4 48.9 76 5.4 41.7 0 0
04:41 1025 30.27 854 25.22 9.2 48.5 77 5.4 41.7 0 0
04:42 1025 30.27 854 25.22 9 48.2 78 5.3 41.6 0 0
04:43 1025 30.27 854 25.22 8.8 47.8 79 5.3 41.5 0 0
04:44 1025 30.27 854 25.22 8.6 47.5 79 5.3 41.5 0 0
04:45 1025 30.27 854 25.22 8.5 47.2 80 5.2 41.4 0 0
04:46 1025 30.27 854 25.22 8.5 47.2 80 5.3 41.5 0 0
04:47 1025 30.27 854 25.22 8.5 47.3 80 5.2 41.4 0 0
04:48 1025 30.27 854 25.22 8.6 47.4 80 5.2 41.4 0 0
04:49 1025 30.27 854 25.22 8.5 47.4 80 5.2 41.4 0 0
04:50 1025 30.27 854 25.22 8.5 47.3 80 5.2 41.4 0 0
04:51 1025 30.27 854 25.22 8.4 47.1 80 5.2 41.4 0 0
04:52 1025 30.27 854 25.22 8.3 47 81 5.2 41.4 0 0
04:53 1025 30.27 854 25.22 8.2 46.8 81 5.3 41.5 0 0
04:54 1025 30.27 854 25.22 8.2 46.7 82 5.2 41.4 0 0
04:55 1025 30.27 854 25.22 8.1 46.6 82 5.2 41.4 0 0
04:56 1025 30.27 854 25.22 8.1 46.5 82 5.2 41.4 0 0
04:57 1025 30.27 854 25.22 8.1 46.6 82 5.2 41.4 0 0
04:58 1025 30.27 854 25.22 8.2 46.8 82 5.3 41.5 0 0
04:59 1025 30.27 854 25.22 8.3 47 81 5.3 41.5 0 0
05:00 1025 30.27 854 25.22 8.5 47.3 80 5.3 41.6 0 0
05:01 1025 30.27 854 25.22 8.7 47.6 80 5.4 41.6 0 0
05:02 1025 30.27 854 25.22 8.8 47.8 79 5.4 41.7 0 0
05:03 1025 30.27 854 25.22 8.9 48.1 79 5.5 41.8 0 0
05:04 1025 30.27 854 25.22 9.1 48.3 78 5.5 41.9 0 0
05:05 1025 30.27 854 25.22 9.2 48.6 78 5.5 41.9 0 0
05:06 1025 30.27 854 25.22 9.3 48.8 77 5.5 42 0 0
05:07 1025 30.27 854 25.22 9.6 49.2 76 5.6 42 0 0
05:08 1025 30.27 854 25.22 9.8 49.7 75 5.6 42 0 0
05:09 1025 30.27 854 25.22 10.1 50.1 74 5.6 42 0 0
05:10 1025 30.27 854 25.22 10.2 50.3 73 5.5 41.9 0 0
05:11 1025 30.27 854 25.22 10.3 50.5 73 5.6 42.2 0 0
05:12 1025 30.27 854 25.22 10.3 50.5 72 5.5 42 0 0
05:13 1025 30.27 854 25.22 10.3 50.5 72 5.6 42 0 0
05:14 1025 30.27 854 25.22 10.3 50.5 72 5.4 41.8 0 0
05:15 1025 30.27 854 25.22 10.3 50.6 72 5.5 41.9 0 0
05:16 1025 30.27 854 25.22 10.3 50.6 72 5.4 41.8 0 0
05:17 1025 30.27 854 25.22 10.3 50.5 71 5.4 41.7 0 0
05:18 1025 30.27 854 25.22 10.4 50.7 71 5.4 41.8 0 0
05:19 1025 30.27 854 25.22 10.4 50.6 71 5.4 41.7 0 0
05:20 1025 30.27 854 25.22 10.4 50.7 71 5.4 41.7 0 0
05:21 1025 30.27 854 25.22 10.4 50.6 72 5.5 41.8 0 0
05:22 1025 30.27 854 25.22 10.3 50.5 73 5.6 42 0 0
05:23 1025 30.27 854 25.22 10.1 50.1 74 5.6 42.1 0 0
05:24 1025 30.27 854 25.22 9.9 49.7 75 5.6 42.1 0 0
05:25 1025 30.27 854 25.22 9.7 49.4 75 5.5 42 0 0
05:26 1025 30.27 854 25.22 9.5 49.1 76 5.5 41.9 0 0
05:27 1025 30.27 854 25.22 9.4 49 76 5.5 41.8 0 0
05:28 1025 30.27 854 25.22 9.4 48.9 76 5.4 41.7 0 0
05:29 1025 30.27 854 25.22 9.5 49 76 5.4 41.7 0 0
05:30 1025 30.27 854 25.22 9.5 49.1 75 5.4 41.7 0 0
05:31 1025 30.27 854 25.22 9.6 49.2 75 5.4 41.7 0 0
05:32 1025 30.27 854 25.22 9.6 49.3 75 5.4 41.7 0 0
05:33 1025 30.27 854 25.22 9.7 49.4 75 5.4 41.7 0 0
05:34 1025 30.27 854 25.22 9.6 49.4 75 5.4 41.7 0 0
05:35 1025 30.27 854 25.22 9.7 49.4 75 5.4 41.7 0 0
05:36 1025 30.27 854 25.22 9.8 49.6 74 5.4 41.6 0 0
05:37 1025 30.27 854 25.22 9.9 49.8 73 5.4 41.7 0 0
05:38 1025 30.27 854 25.22 10 50 73 5.4 41.8 0 0
05:39 1025 30.27 854 25.22 10.1 50.1 73 5.4 41.7 0 0
05:40 1025 30.27 854 25.22 10.2 50.4 72 5.4 41.7 0 0
05:41 1025 30.27 854 25.22 10.3 50.6 71 5.4 41.7 0 0
05:42 1025 30.27 854 25.22 10.4 50.7 71 5.5 41.9 0 0
05:43 1025 30.27 854 25.22 10.4 50.7 72 5.6 42 0 0
05:44 1025 30.27 854 25.22 10.3 50.5 72 5.5 41.9 0 0
05:45 1025 30.27 854 25.22 10.1 50.2 72 5.4 41.7 0 0
05:46 1025 30.27 854 25.22 10.2 50.3 72 5.3 41.6 0 0
05:47 1025 30.27 854 25.22 10.2 50.4 72 5.4 41.7 0 0
05:48 1025 30.27 854 25.22 10.3 50.6 71 5.4 41.6 0 0
05:49 1025 30.27 854 25.22 10.3 50.6 71 5.4 41.8 0 0
05:50 1025 30.27 854 25.22 10.3 50.5 72 5.5 41.9 0 0
05:51 1025 30.27 854 25.22 10.1 50.2 73 5.5 41.9 0 0
05:52 1025 30.27 854 25.22 10 49.9 73 5.4 41.8 0 0
05:53 1025 30.27 854 25.22 9.9 49.8 73 5.3 41.6 0 0
05:54 1025 30.27 854 25.22 9.9 49.8 73 5.2 41.4 0 0
05:55 1025 30.27 854 25.22 10 50 72 5.2 41.4 0 0
05:56 1025 30.27 854 25.22 10 50 72 5.2 41.3 0 0
05:57 1025 30.27 854 25.22 10 50 73 5.3 41.6 0 0
05:58 1025 30.27 854 25.22 9.9 49.7 73 5.2 41.4 0 0
05:59 1025 30.27 854 25.22 9.9 49.7 73 5.2 41.4 0 0
06:00 1025 30.27 854 25.22 9.9 49.8 72 5.2 41.3 0 0
06:01 1025 30.27 854 25.22 9.9 49.9 73 5.3 41.6 0 0
06:02 1025 30.27 854 25.22 10 50 72 5.2 41.3 0 0
06:03 1025 30.27 854 25.22 10.1 50.1 71 5.2 41.3 0 0
06:04 1025 30.27 854 25.22 10.1 50.1 71 5.1 41.2 0 0
06:05 1025 30.27 854 25.22 10.1 50.2 71 5.2 41.3 0 0
06:06 1025 30.27 854 25.22 10.1 50.2 71 5.2 41.3 0 0
06:07 1025 30.27 854 25.22 10.1 50.3 71 5.2 41.4 0 0
06:08 1025 30.27 854 25.22 10.1 50.2 71 5.1 41.2 0 0
06:09 1025 30.27 854 25.22 10.1 50.2 71 5.1 41.2 0 0
06:10 1025 30.27 854 25.22 10.1 50.1 71 5 41.1 0 0
06:11 1025 30.27 854 25.22 10.1 50.2 71 5 41.1 0 0
06:12 1025 30.27 854 25.22 10.1 50.2 71 5.1 41.2 0 0
06:13 1025 30.27 854 25.22 10 50.1 71 5.1 41.2 0 0
06:14 1025 30.27 854 25.22 10 49.9 71 5 41.1 0 0
06:15 1025 30.27 854 25.22 9.9 49.9 71 4.9 40.9 0 0
06:16 1025 30.27 854 25.22 9.9 49.9 71 4.9 40.9 0 0
06:17 1025 30.27 854 25.22 10 49.9 71 5 40.9 0 0
06:18 1025 30.27 854 25.22 10 49.9 71 5 41 0 0
06:19 1025 30.27 854 25.22 10 49.9 71 5.1 41.1 0 0
06:20 1025 30.27 854 25.22 9.9 49.8 72 5 41 0 0
06:21 1025 30.27 854 25.22 9.9 49.8 72 5 41 0 0
06:22 1025 30.27 854 25.22 9.9 49.7 72 5.2 41.3 0 0
06:23 1025 30.27 854 25.22 9.8 49.6 72 5 41.1 0 0
06:24 1025 30.27 854 25.22 9.8 49.6 72 5.1 41.1 0 0
06:25 1025 30.27 854 25.22 9.8 49.7 72 5.1 41.2 0 0
06:26 1025 30.27 854 25.22 9.9 49.7 73 5.2 41.3 0 0
06:27 1025 30.27 854 25.22 9.8 49.6 73 5.2 41.3 0 0
06:28 1025 30.27 854 25.22 9.7 49.5 74 5.3 41.5 0 0
06:29 1025 30.27 854 25.22 9.6 49.3 74 5.2 41.4 0 0
06:30 1025 30.27 854 25.22 9.6 49.3 74 5.2 41.3 0 0
06:31 1025 30.27 854 25.22 9.5 49.1 74 5.1 41.3 0 0
06:32 1025 30.27 854 25.22 9.4 48.9 75 5.1 41.2 0 0
06:33 1025 30.27 854 25.22 9.3 48.8 75 5 41.1 0 0
06:34 1025 30.27 854 25.22 9.3 48.8 75 5.1 41.1 0 0
06:35 1025 30.27 854 25.22 9.3 48.8 74 5 41.1 0 0
06:36 1025 30.27 854 25.22 9.4 48.9 74 5.1 41.1 0 0
06:37 1025 30.27 854 25.22 9.4 49 74 5 41.1 0 0
06:38 1025 30.27 854 25.22 9.5 49 74 5.1 41.1 0 0
06:39 1025 30.27 854 25.22 9.5 49 74 5.1 41.2 0 0
06:40 1025 30.27 854 25.22 9.5 49 74 5 41.1 0 0
06:41 1025 30.27 854 25.22 9.6 49.2 73 5.1 41.1 0 0
06:42 1025 30.27 854 25.22 9.6 49.3 73 5.1 41.1 0 0
06:43 1025 30.27 854 25.22 9.7 49.4 73 5.1 41.2 0 0
06:44 1025 30.27 854 25.22 9.6 49.3 73 5.1 41.2 0 0
06:45 1025 30.27 854 25.22 9.6 49.2 74 5.2 41.4 0 0
06:46 1025 30.27 854 25.22 9.6 49.3 74 5.2 41.4 0 0
06:47 1025 30.27 854 25.22 9.6 49.3 73 5.1 41.2 0 0
06:48 1025 30.27 854 25.22 9.7 49.4 74 5.2 41.4 0 0
06:49 1025 30.27 854 25.22 9.7 49.4 74 5.3 41.5 0 0
06:50 1025 30.27 854 25.22 9.6 49.3 75 5.3 41.6 0 0
06:51 1025 30.27 854 25.22 9.6 49.3 74 5.2 41.3 0 0
06:52 1025 30.27 854 25.22 9.7 49.5 73 5.2 41.4 0 0
06:53 1025 30.27 854 25.22 9.8 49.6 73 5.3 41.5 0 0
06:54 1025 30.27 854 25.22 9.9 49.7 73 5.4 41.6 0 0
06:55 1025 30.27 854 25.22 9.9 49.8 73 5.3 41.6 0 0
06:56 1025 30.27 854 25.22 10 50 73 5.4 41.7 0 0
06:57 1025 30.27 854 25.22 10.1 50.2 73 5.5 41.9 0 0
06:58 1025 30.27 854 25.22 10.1 50.2 73 5.5 42 0 0
06:59 1025 30.27 854 25.22 10.2 50.3 72 5.4 41.8 0 0
07:00 1025 30.27 854 25.22 10.3 50.5 72 5.5 41.8 0 0
07:01 1025 30.27 854 25.22 10.3 50.6 72 5.5 41.9 0 0
07:02 1025 30.27 854 25.22 10.4 50.6 72 5.6 42.1 0 0
07:03 1025 30.27 854 25.22 10.4 50.6 73 5.7 42.2 0 0
07:04 1025 30.27 854 25.22 10.3 50.6 73 5.7 42.3 0 0
07:05 1025 30.27 854 25.22 10.4 50.6 73 5.7 42.3 0 0
07:06 1025 30.27 854 25.22 10.4 50.7 72 5.7 42.2 0 0
07:07 1025 30.27 854 25.22 10.5 50.9 72 5.7 42.2 0 0
07:08 1025 30.27 854 25.22 10.5 51 72 5.8 42.4 0 0
07:09 1025 30.27 854 25.22 10.6 51.1 71 5.6 42.2 0 0
07:10 1025 30.27 854 25.22 10.7 51.2 71 5.7 42.2 0 0
07:11 1025 30.27 854 25.22 10.8 51.4 71 5.7 42.2 0 0
07:12 1025 30.27 854 25.22 10.8 51.5 71 5.7 42.3 0 0
07:13 1025 30.27 854 25.22 10.9 51.5 70 5.7 42.3 0 0
07:14 1025 30.27 854 25.22 10.9 51.6 70 5.7 42.3 0 0
07:15 1025 30.27 854 25.22 10.9 51.6 70 5.8 42.4 0 0
07:16 1025 30.27 854 25.22 10.9 51.6 71 5.9 42.5 0 0
07:17 1025 30.27 854 25.22 10.9 51.7 71 5.9 42.6 0 0
07:18 1025 30.27 854 25.22 11 51.7 72 6.1 42.9 0 0
07:19 1025 30.27 854 25.22 10.9 51.7 72 6.1 43 0 0
07:20 1025 30.27 854 25.22 11 51.8 72 6.2 43.1 0 0
07:21 1025 30.27 854 25.22 11.2 52.1 71 6.2 43.1 0 0
07:22 1025 30.27 854 25.22 11.2 52.2 71 6.3 43.3 0 0
07:23 1025 30.27 854 25.22 11.3 52.3 73 6.5 43.8 0 0
07:24 1025 30.27 854 25.22 11.3 52.3 73 6.6 43.8 0 0
07:25 1025 30.27 854 25.22 11.4 52.6 73 6.7 44.1 0 0
07:26 1025 30.27 854 25.22 11.7 53 72 6.8 44.2 0 0
07:27 1025 30.27 854 25.22 11.9 53.5 72 7.1 44.8 0 0
07:28 1025 30.27 854 25.22 12.6 54.7 72 7.6 45.8 0 0
07:29 1025 30.27 854 25.22 13.7 56.6 68 7.9 46.2 0 0
07:30 1025 30.27 854 25.22 14.5 58.2 65 8.1 46.6 0 0
07:31 1025 30.27 854 25.22 15.1 59.1 62 8 46.4 0 0
07:32 1025 30.27 854 25.22 15.5 59.9 61 8.1 46.6 0 0
07:33 1025 30.27 854 25.22 15.8 60.4 60 8 46.4 0 0
07:34 1025 30.27 854 25.22 16 60.8 59 8.1 46.6 0 0
07:35 1025 30.27 854 25.22 16.2 61.1 59 8.1 46.7 0 0
07:36 1025 30.27 854 25.22 16.3 61.3 59 8.4 47.1 0 0
07:37 1025 30.27 854 25.22 16.3 61.4 59 8.4 47.1 0 0
07:38 1025 30.27 854 25.22 16.4 61.5 59 8.5 47.3 0 0
07:39 1025 30.27 854 25.22 16.4 61.5 59 8.4 47 0 0
07:40 1025 30.27 854 25.22 16.4 61.6 58 8.3 46.9 0 0
07:41 1025 30.27 854 25.22 16.5 61.8 58 8.2 46.8 0 0
07:42 1025 30.27 854 25.22 16.6 61.9 58 8.4 47 0 0
07:43 1025 30.27 854 25.22 16.6 62 57 8.2 46.7 0 0
07:44 1025 30.27 854 25.22 16.7 62.1 58 8.4 47.2 0 0
07:45 1025 30.27 854 25.22 16.7 62.1 58 8.4 47.1 0 0
07:46 1025 30.27 854 25.22 16.7 62.1 57 8.3 47 0 0
07:47 1025 30.27 854 25.22 16.8 62.2 57 8.3 47 0 0
07:48 1025 30.27 854 25.22 16.8 62.2 58 8.7 47.6 0 0
07:49 1025 30.27 854 25.22 16.7 62.1 58 8.5 47.3 0 0
07:50 1025 30.27 854 25.22 16.7 62.1 57 8.2 46.7 0 0
07:51 1025 30.27 854 25.22 16.8 62.2 58 8.6 47.5 0 0
07:52 1025 30.27 854 25.22 16.8 62.2 58 8.4 47.2 0 0
07:53 1025 30.27 854 25.22 16.8 62.3 56 8.2 46.7 0 0
07:54 1025 30.27 854 25.22 16.8 62.3 58 8.5 47.3 0 0
07:55 1025 30.27 854 25.22 16.8 62.3 57 8.3 47 0 0
07:56 1025 30.27 854 25.22 16.9 62.4 56 8.2 46.7 0 0
07:57 1025 30.27 854 25.22 16.9 62.5 56 8.2 46.8 0 0
07:58 1025 30.27 854 25.22 17 62.5 57 8.4 47.1 0 0
07:59 1025 30.27 854 25.22 17 62.5 56 8.2 46.8 0 0
08:00 1025 30.27 854 25.22 17 62.6 57 8.5 47.3 0 0
08:01 1025 30.27 854 25.22 17 62.6 58 8.7 47.7 0 0
08:02 1025 30.27 854 25.22 17 62.5 57 8.4 47.2 0 0
08:03 1025 30.27 854 25.22 17 62.5 57 8.4 47.2 0 0
08:04 1025 30.27 854 25.22 17 62.6 56 8.1 46.7 0 0
08:05 1025 30.27 854 25.22 17 62.7 57 8.5 47.4 0 0
08:06 1025 30.27 854 25.22 17 62.7 57 8.5 47.3 0 0
08:07 1025 30.27 854 25.22 17.1 62.7 57 8.5 47.3 0 0
08:08 1025 30.27 854 25.22 17.1 62.8 57 8.5 47.3 0 0
08:09 1025 30.27 854 25.22 17.1 62.8 56 8.4 47.2 0 0
08:10 1025 30.27 854 25.22 17.1 62.8 56 8.5 47.3 0 0
08:11 1025 30.27 854 25.22 17.2 62.9 57 8.5 47.4 0 0
08:12 1025 30.27 854 25.22 17.2 63 56 8.5 47.3 0 0
08:13 1025 30.27 854 25.22 17.2 63 55 8.3 47 0 0
08:14 1025 30.27 854 25.22 17.3 63.1 55 8.3 46.9 0 0
08:15 1025 30.27 854 25.22 17.3 63.1 57 8.8 47.8 0 0
08:16 1025 30.27 854 25.22 17.3 63.2 56 8.5 47.3 0 0
08:17 1025 30.27 854 25.22 17.3 63.2 57 8.8 47.8 0 0
08:18 1025 30.27 854 25.22 17.3 63.2 56 8.6 47.4 0 0
08:19 1025 30.27 854 25.22 17.4 63.2 55 8.4 47.1 0 0
08:20 1025 30.27 854 25.22 17.4 63.3 56 8.7 47.6 0 0
08:21 1025 30.27 854 25.22 17.4 63.4 56 8.6 47.5 0 0
08:22 1025 30.27 854 25.22 17.5 63.4 56 8.6 47.5 0 0
08:23 1025 30.27 854 25.22 17.5 63.4 57 8.9 48 0 0
08:24 1025 30.27 854 25.22 17.5 63.4 56 8.7 47.7 0 0
08:25 1025 30.27 854 25.22 17.5 63.5 56 8.8 47.9 0 0
08:26 1025 30.27 854 25.22 17.5 63.5 55 8.6 47.5 0 0
08:27 1025 30.27 854 25.22 17.5 63.5 55 8.5 47.3 0 0
08:28 1025 30.27 854 25.22 17.5 63.5 56 8.7 47.6 0 0
08:29 1025 30.27 854 25.22 17.5 63.5 56 8.8 47.8 0 0
08:30 1025 30.27 854 25.22 17.6 63.6 56 8.7 47.7 0 0
08:31 1025 30.27 854 25.22 17.6 63.6 56 8.7 47.7 0 0
08:32 1025 30.27 854 25.22 17.6 63.6 57 9 48.2 0 0
08:33 1025 30.27 854 25.22 17.7 63.8 56 9 48.1 0 0
08:34 1025 30.27 854 25.22 17.7 63.9 56 8.9 48 0 0
08:35 1025 30.27 854 25.22 17.7 63.9 57 9.1 48.4 0 0
08:36 1025 30.27 854 25.22 17.8 64 56 9 48.2 0 0
08:37 1025 30.27 854 25.22 17.8 64.1 55 8.7 47.7 0 0
08:38 1025 30.27 854 25.22 17.9 64.1 55 8.8 47.9 0 0
08:39 1025 30.27 854 25.22 17.9 64.3 56 9 48.3 0 0
08:40 1025 30.27 854 25.22 17.9 64.2 54 8.7 47.7 0 0
08:41 1025 30.27 854 25.22 17.9 64.3 54 8.5 47.3 0 0
08:42 1025 30.27 854 25.22 17.9 64.2 56 9 48.2 0 0
08:43 1025 30.27 854 25.22 17.9 64.3 56 9 48.2 0 0
08:44 1025 30.27 854 25.22 17.9 64.3 55 8.9 48 0 0
08:45 1025 30.27 854 25.22 18 64.3 54 8.6 47.4 0 0
08:46 1025 30.27 854 25.22 18 64.3 55 8.8 47.8 0 0
08:47 1025 30.27 854 25.22 18 64.4 55 8.8 47.9 0 0
08:48 1025 30.27 855 25.25 18.1 64.5 55 9 48.3 0 0
08:49 1025 30.27 854 25.22 18.1 64.5 55 9.1 48.4 0 0
08:50 1025 30.27 855 25.25 18.1 64.5 55 9 48.2 0 0
08:51 1025 30.27 855 25.25 18.1 64.6 54 8.9 48 0 0
08:52 1025 30.27 855 25.25 18.1 64.7 55 9.1 48.4 0 0
08:53 1025 30.27 855 25.25 18.1 64.6 55 9 48.2 0 0
08:54 1025 30.27 855 25.25 18.2 64.7 55 9.2 48.5 0 0
08:55 1025 30.27 855 25.25 18.2 64.8 54 8.7 47.7 0 0
08:56 1025 30.27 855 25.25 18.2 64.8 55 9.3 48.7 0 0
08:57 1025 30.27 855 25.25 18.3 64.9 55 9.2 48.5 0 0
08:58 1025 30.27 855 25.25 18.4 65 55 9.3 48.8 0 0
08:59 1025 30.27 855 25.25 18.4 65 55 9.2 48.6 0 0
09:00 1025 30.27 855 25.25 18.4 65.1 54 9 48.1 0 0
09:01 1025 30.27 855 25.25 18.4 65 55 9.2 48.5 0 0
09:02 1025 30.27 855 25.25 18.4 65.1 54 8.9 48 0 0
09:03 1025 30.27 855 25.25 18.4 65.1 56 9.5 49.1 0 0
09:04 1025 30.27 855 25.25 18.4 65.2 55 9.3 48.8 0 0
09:05 1025 30.27 855 25.25 18.5 65.3 54 9.1 48.4 0 0
09:06 1025 30.27 855 25.25 18.6 65.4 54 9.3 48.7 0 0
09:07 1025 30.27 855 25.25 18.5 65.4 53 8.9 48 0 0
09:08 1025 30.27 855 25.25 18.6 65.4 55 9.5 49.2 0 0
09:09 1025 30.27 855 25.25 18.7 65.6 53 9.1 48.3 0 0
09:10 1025 30.27 855 25.25 18.7 65.7 53 9.1 48.5 0 0
09:11 1025 30.27 855 25.25 18.7 65.7 52 8.8 47.8 0 0
09:12 1025 30.27 855 25.25 18.7 65.6 54 9.2 48.6 0 0
09:13 1025 30.27 855 25.25 18.7 65.7 52 8.7 47.7 0 0
09:14 1025 30.27 855 25.25 18.7 65.7 53 9.1 48.3 0 0
09:15 1025 30.27 855 25.25 18.7 65.7 52 8.8 47.9 0 0
09:16 1025 30.27 855 25.25 18.7 65.7 55 9.5 49.2 0 0
09:17 1025 30.27 855 25.25 18.8 65.8 52 8.8 47.8 0 0
09:18 1025 30.27 855 25.25 18.8 65.8 54 9.3 48.7 0 0
09:19 1025 30.27 855 25.25 18.7 65.7 52 8.9 48 0 0
09:20 1025 30.27 855 25.25 18.7 65.7 53 9.1 48.3 0 0
09:21 1025 30.27 855 25.25 18.8 65.8 53 9.1 48.4 0 0
09:22 1025 30.27 855 25.25 18.9 66 53 9.2 48.6 0 0
09:23 1025 30.27 855 25.25 19 66.2 52 8.9 48.1 0 0
09:24 1025 30.27 855 25.25 19 66.2 52 9 48.2 0 0
09:25 1025 30.27 855 25.25 18.9 66 53 9.1 48.4 0 0
09:26 1025 30.27 855 25.25 18.9 65.9 52 8.9 48.1 0 0
09:27 1025 30.27 855 25.25 18.8 65.9 55 9.7 49.5 0 0
09:28 1025 30.27 855 25.25 19 66.1 55 9.7 49.5 0 0
09:29 1025 30.27 855 25.25 19.1 66.3 50 8.7 47.6 0 0
09:30 1025 30.27 855 25.25 19.1 66.3 51 8.8 47.8 0 0
09:31 1025 30.27 855 25.25 19 66.2 51 8.8 47.9 0 0
09:32 1025 30.27 855 25.25 18.9 66.1 52 9 48.2 0 0
09:33 1025 30.27 855 25.25 18.9 66 52 9.1 48.3 0 0
09:34 1025 30.27 855 25.25 18.9 66 52 8.9 48.1 0 0
09:35 1025 30.27 855 25.25 19 66.1 51 8.8 47.8 0 0
09:36 1025 30.27 855 25.25 19 66.3 52 9 48.2 0 0
09:37 1025 30.27 854 25.22 19.1 66.3 53 9.3 48.8 0 0
09:38 1025 30.27 854 25.22 19.1 66.4 53 9.4 48.9 0 0
09:39 1025 30.27 855 25.25 19 66.2 51 8.6 47.5 0 0
09:40 1025 30.27 855 25.25 19 66.1 53 9.3 48.7 0 0
09:41 1025 30.27 855 25.25 19 66.3 53 9.4 48.9 0 0
09:42 1025 30.27 855 25.25 19.2 66.5 52 9.3 48.8 0 0
09:43 1025 30.27 855 25.25 19.3 66.8 53 9.6 49.3 0 0
09:44 1025 30.27 854 25.22 19.4 67 51 9.1 48.3 0 0
09:45 1025 30.27 855 25.25 19.4 66.9 50 8.7 47.7 0 0
09:46 1025 30.27 855 25.25 19.4 66.9 50 8.9 48.1 0 0
09:47 1025 30.27 855 25.25 19.4 67 51 9.3 48.7 0 0
09:48 1025 30.27 855 25.25 19.4 66.9 50 8.9 47.9 0 0
09:49 1025 30.27 855 25.25 19.3 66.7 52 9.3 48.8 0 0
09:50 1025 30.27 855 25.25 19.1 66.4 50 8.5 47.3 0 0
09:51 1025 30.27 855 25.25 19.1 66.3 50 8.5 47.4 0 0
09:52 1025 30.27 855 25.25 19 66.2 52 9 48.3 0 0
09:53 1025 30.27 855 25.25 19 66.2 53 9.4 48.9 0 0
09:54 1025 30.27 854 25.22 19 66.2 56 10 50.1 0 0
09:55 1025 30.27 855 25.25 19.1 66.4 52 9.1 48.3 0 0
09:56 1025 30.27 855 25.25 19.2 66.6 50 8.6 47.5 0 0
09:57 1025 30.27 855 25.25 19.2 66.6 50 8.6 47.4 0 0
09:58 1025 30.27 854 25.22 19.2 66.6 53 9.5 49.2 0 0
09:59 1025 30.27 854 25.22 19.3 66.8 55 10.2 50.3 0 0
10:00 1025 30.27 854 25.22 19.4 66.9 52 9.4 49 0 0
10:01 1025 30.27 855 25.25 19.3 66.8 54 9.8 49.6 0 0
10:02 1025 30.27 854 25.22 19.3 66.8 51 9.1 48.3 0 0
10:03 1025 30.27 854 25.22 19.3 66.8 52 9.4 48.9 0 0
10:04 1025 30.27 854 25.22 19.4 67 49 8.5 47.3 0 0
10:05 1025 30.27 854 25.22 19.3 66.8 49 8.6 47.4 0 0
10:06 1025 30.27 855 25.25 19.2 66.6 52 9.4 48.9 0 0
10:07 1025 30.27 854 25.22 19.3 66.7 54 9.9 49.9 0 0
10:08 1025 30.27 854 25.22 19.4 66.8 50 8.7 47.7 0 0
10:09 1025 30.27 855 25.25 19.3 66.7 51 9 48.2 0 0
10:10 1025 30.27 855 25.25 19.2 66.6 48 8.2 46.8 0 0
10:11 1025 30.27 854 25.22 19.2 66.6 50 8.6 47.5 0 0
10:12 1025 30.27 854 25.22 19.3 66.7 52 9.4 48.9 0 0
10:13 1025 30.27 855 25.25 19.4 66.9 50 8.9 48.1 0 0
10:14 1025 30.27 854 25.22 19.5 67 54 10 50 0 0
10:15 1025 30.27 855 25.25 19.6 67.2 50 9 48.3 0 0
10:16 1025 30.27 855 25.25 19.6 67.3 51 9.2 48.6 0 0
10:17 1025 30.27 854 25.22 19.6 67.3 51 9.2 48.6 0 0
10:18 1025 30.27 854 25.22 19.6 67.2 49 8.8 47.8 0 0
10:19 1025 30.27 854 25.22 19.5 67.1 49 8.6 47.5 0 0
10:20 1025 30.27 854 25.22 19.5 67.1 50 8.8 47.9 0 0
10:21 1025 30.27 854 25.22 19.5 67.1 52 9.6 49.3 0 0
10:22 1025 30.27 854 25.22 19.6 67.3 51 9.2 48.6 0 0
10:23 1025 30.27 854 25.22 19.5 67.2 51 9.2 48.5 0 0
10:24 1025 30.27 854 25.22 19.6 67.3 49 8.6 47.5 0 0
10:25 1025 30.27 854 25.22 19.6 67.3 48 8.6 47.4 0 0
10:26 1025 30.27 854 25.22 19.7 67.4 48 8.3 47 0 0
10:27 1025 30.27 854 25.22 19.7 67.5 49 8.9 47.9 0 0
10:28 1025 30.27 854 25.22 19.8 67.6 50 9.3 48.8 0 0
10:29 1025 30.27 854 25.22 19.9 67.8 49 9 48.2 0 0
10:30 1025 30.27 855 25.25 19.9 67.7 50 9.2 48.5 0 0
10:31 1025 30.27 854 25.22 19.8 67.6 47 8.4 47.1 0 0
10:32 1025 30.27 854 25.22 19.8 67.7 49 9 48.2 0 0
10:33 1025 30.27 854 25.22 19.9 67.9 47 8.5 47.4 0 0
10:34 1025 30.27 854 25.22 19.9 67.9 48 8.8 47.8 0 0
10:35 1025 30.27 855 25.25 20 68 45 7.8 46.1 0 0
10:36 1025 30.27 855 25.25 20 68 49 9.2 48.6 0 0
10:37 1025 30.27 854 25.22 20.1 68.1 47 8.4 47.1 0 0
10:38 1025 30.27 854 25.22 20.1 68.2 47 8.6 47.6 0 0
10:39 1025 30.27 854 25.22 20 68.1 48 8.8 47.8 0 0
10:40 1025 30.27 854 25.22 20 67.9 46 8.2 46.7 0 0
10:41 1025 30.27 854 25.22 20.1 68.1 51 9.7 49.5 0 0
10:42 1025 30.27 854 25.22 20.2 68.3 46 8.3 46.9 0 0
10:43 1025 30.27 854 25.22 20.2 68.3 46 8.4 47.1 0 0
10:44 1025 30.27 854 25.22 20.2 68.4 46 8.3 47 0 0
10:45 1025 30.27 854 25.22 20.3 68.5 46 8.6 47.4 0 0
10:46 1025 30.27 854 25.22 20.3 68.6 45 8 46.5 0 0
10:47 1025 30.27 854 25.22 20.3 68.5 48 9 48.2 0 0
10:48 1025 30.27 854 25.22 20.4 68.7 45 8.1 46.6 0 0
10:49 1025 30.27 854 25.22 20.3 68.5 47 8.8 47.9 0 0
10:50 1025 30.27 854 25.22 20.3 68.5 45 8.3 46.9 0 0
10:51 1025 30.27 854 25.22 20.4 68.7 49 9.4 48.9 0 0
10:52 1025 30.27 854 25.22 20.5 68.8 47 8.9 48.1 0 0
10:53 1025 30.27 854 25.22 20.5 68.9 46 8.7 47.7 0 0
10:54 1025 30.27 854 25.22 20.5 68.9 47 8.9 47.9 0 0
10:55 1025 30.27 854 25.22 20.5 68.9 49 9.7 49.4 0 0
10:56 1025 30.27 854 25.22 20.5 68.8 45 8.2 46.8 0 0
10:57 1025 30.27 854 25.22 20.4 68.8 45 8.4 47.1 0 0
10:58 1025 30.27 854 25.22 20.5 69 46 8.8 47.8 0 0
10:59 1025 30.27 854 25.22 20.6 69.1 42 7.4 45.3 0 0
11:00 1025 30.27 854 25.22 20.5 68.9 45 8.3 47 0 0
11:01 1025 30.27 854 25.22 20.6 69 47 9.1 48.4 0 0
11:02 1025 30.27 854 25.22 20.7 69.3 44 8 46.5 0 0
11:03 1025 30.27 854 25.22 20.8 69.4 46 8.8 47.8 0 0
11:04 1025 30.27 854 25.22 20.8 69.5 48 9.6 49.2 0 0
11:05 1025 30.27 854 25.22 20.9 69.6 44 8.2 46.8 0 0
11:06 1025 30.27 854 25.22 20.8 69.4 42 7.6 45.7 0 0
11:07 1025 30.27 854 25.22 20.7 69.3 43 8 46.4 0 0
11:08 1025 30.27 854 25.22 20.8 69.4 44 8.3 47 0 0
11:09 1025 30.27 854 25.22 20.8 69.5 46 8.9 48 0 0
11:10 1025 30.27 854 25.22 21 69.7 48 9.7 49.5 0 0
11:11 1025 30.27 854 25.22 21.1 69.9 46 9.2 48.6 0 0
11:12 1025 30.27 854 25.22 21 69.8 44 8.6 47.5 0 0
11:13 1025 30.27 854 25.22 21 69.7 43 8.2 46.8 0 0
11:14 1025 30.27 854 25.22 20.8 69.5 43 8 46.4 0 0
11:15 1025 30.27 854 25.22 20.7 69.3 48 9.3 48.7 0 0
11:16 1025 30.27 854 25.22 20.8 69.4 45 8.6 47.4 0 0
11:17 1025 30.27 854 25.22 21 69.8 47 9.5 49.1 0 0
11:18 1025 30.27 854 25.22 21.1 70 45 8.9 48.1 0 0
11:19 1025 30.27 854 25.22 21.1 70 46 9.2 48.6 0 0
11:20 1025 30.27 854 25.22 21.2 70.1 44 8.5 47.3 0 0
11:21 1025 30.27 854 25.22 21.1 70 45 9 48.2 0 0
11:22 1025 30.27 854 25.22 21.1 70 43 8.2 46.8 0 0
11:23 1025 30.27 854 25.22 21.1 70 44 8.5 47.2 0 0
11:24 1025 30.27 854 25.22 21.1 69.9 43 8 46.4 0 0
11:25 1025 30.27 854 25.22 21.3 70.3 47 9.5 49.2 0 0
11:26 1025 30.27 854 25.22 21.3 70.4 43 8.4 47.1 0 0
11:27 1025 30.27 854 25.22 21.3 70.3 47 9.7 49.4 0 0
11:28 1025 30.27 854 25.22 21.3 70.3 41 7.5 45.5 0 0
11:29 1025 30.27 854 25.22 21.3 70.3 44 8.6 47.5 0 0
11:30 1025 30.27 854 25.22 21.3 70.4 46 9.5 49.2 0 0
11:31 1025 30.27 854 25.22 21.4 70.5 48 10 49.9 0 0
11:32 1025 30.27 854 25.22 21.4 70.6 43 8.5 47.2 0 0
11:33 1025 30.27 854 25.22 21.5 70.7 45 9.3 48.7 0 0
11:34 1025 30.27 854 25.22 21.6 70.8 44 8.9 48.1 0 0
11:35 1025 30.27 854 25.22 21.7 71 41 7.9 46.3 0 0
11:36 1025 30.27 854 25.22 21.5 70.7 43 8.7 47.7 0 0
11:37 1025 30.27 854 25.22 21.4 70.6 44 9 48.2 0 0
11:38 1025 30.27 854 25.22 21.5 70.7 45 9.1 48.3 0 0
11:39 1025 30.27 854 25.22 21.5 70.7 46 9.4 49 0 0
11:40 1025 30.27 854 25.22 21.5 70.7 46 9.7 49.4 0 0
11:41 1025 30.27 854 25.22 21.6 70.8 45 9.4 49 0 0
11:42 1025 30.27 854 25.22 21.7 71.1 44 9.1 48.4 0 0
11:43 1025 30.27 854 25.22 21.9 71.3 40 7.9 46.2 0 0
11:44 1025 30.27 854 25.22 21.9 71.4 44 9.2 48.5 0 0
11:45 1025 30.27 854 25.22 21.8 71.3 43 8.9 48 0 0
11:46 1025 30.27 854 25.22 21.8 71.2 45 9.5 49.1 0 0
11:47 1025 30.27 854 25.22 21.8 71.3 44 9 48.2 0 0
11:48 1025 30.27 854 25.22 21.8 71.2 43 8.9 48 0 0
11:49 1025 30.27 854 25.22 21.8 71.3 46 10 49.9 0 0
11:50 1025 30.27 854 25.22 21.9 71.5 45 9.7 49.4 0 0
11:51 1025 30.27 854 25.22 21.9 71.5 44 9.3 48.7 0 0
11:52 1025 30.27 854 25.22 21.9 71.4 42 8.4 47.1 0 0
11:53 1025 30.27 854 25.22 21.9 71.4 46 9.8 49.7 0 0
11:54 1025 30.27 854 25.22 22.1 71.8 43 9.2 48.5 0 0
11:55 1025 30.27 854 25.22 22.2 71.9 42 8.8 47.8 0 0
11:56 1025 30.27 854 25.22 22.1 71.8 44 9.3 48.8 0 0
11:57 1025 30.27 854 25.22 22.2 71.9 39 7.9 46.1 0 0
11:58 1025 30.27 854 25.22 22 71.7 43 9 48.2 0 0
11:59 1025 30.27 854 25.22 22 71.6 42 8.8 47.8 0 0
12:00 1025 30.27 854 25.22 22.2 71.9 42 8.7 47.7 0 0
12:01 1025 30.27 854 25.22 22.2 72 43 9.2 48.6 0 0
12:02 1025 30.27 854 25.22 22.3 72.1 41 8.7 47.6 0 0
12:03 1025 30.27 854 25.22 22.3 72.1 42 9.1 48.4 0 0
12:04 1025 30.27 854 25.22 22.2 72 42 9 48.3 0 0
12:05 1025 30.27 854 25.22 22.2 72 41 8.6 47.5 0 0
12:06 1025 30.27 854 25.22 22.2 72 42 8.8 47.8 0 0
12:07 1025 30.27 854 25.22 22.3 72.1 41 8.7 47.6 0 0
12:08 1025 30.27 854 25.22 22.6 72.6 44 9.8 49.6 0 0
12:09 1025 30.27 854 25.22 22.7 72.8 40 8.5 47.3 0 0
12:10 1025 30.27 854 25.22 22.6 72.6 41 8.7 47.6 0 0
12:11 1025 30.27 854 25.22 22.5 72.4 40 8.4 47.1 0 0
12:12 1025 30.27 854 25.22 22.4 72.3 40 8.2 46.8 0 0
12:13 1024 30.24 854 25.22 22.5 72.4 44 9.8 49.6 0 0
12:14 1024 30.24 854 25.22 22.6 72.7 38 7.9 46.3 0 0
12:15 1024 30.24 854 25.22 22.7 72.8 41 9.1 48.3 0 0
12:16 1024 30.24 854 25.22 22.8 73.1 44 10.3 50.5 0 0
12:17 1024 30.24 854 25.22 23 73.4 42 9.6 49.2 0 0
12:18 1024 30.24 854 25.22 23 73.4 42 9.5 49.1 0 0
12:19 1024 30.24 854 25.22 23 73.3 42 9.6 49.3 0 0
12:20 1024 30.24 854 25.22 23.1 73.5 39 8.7 47.6 0 0
12:21 1024 30.24 854 25.22 23 73.3 41 9.2 48.6 0 0
12:22 1024 30.24 854 25.22 22.9 73.2 39 8.3 47 0 0
12:23 1024 30.24 854 25.22 22.8 73.1 41 9.2 48.5 0 0
12:24 1024 30.24 854 25.22 22.8 73.1 41 9 48.2 0 0
12:25 1024 30.24 854 25.22 23 73.5 41 9.1 48.4 0 0
12:26 1024 30.24 854 25.22 23.2 73.8 40 8.9 48 0 0
12:27 1024 30.24 854 25.22 23.4 74.1 38 8.6 47.4 0 0
12:28 1024 30.24 854 25.22 23.3 73.9 39 8.6 47.5 0 0
12:29 1024 30.24 854 25.22 23.3 73.9 41 9.3 48.8 0 0
12:30 1024 30.24 854 25.22 23.4 74.1 40 9.1 48.3 0 0
12:31 1024 30.24 854 25.22 23.5 74.2 37 8.1 46.5 0 0
12:32 1024 30.24 854 25.22 23.4 74.2 40 9.1 48.4 0 0
12:33 1024 30.24 854 25.22 23.5 74.2 37 8 46.5 0 0
12:34 1024 30.24 854 25.22 23.4 74.2 38 8.7 47.7 0 0
12:35 1024 30.24 854 25.22 23.5 74.2 38 8.7 47.7 0 0
12:36 1024 30.24 854 25.22 23.5 74.2 41 9.5 49.1 0 0
12:37 1024 30.24 854 25.22 23.4 74.1 37 7.9 46.3 0 0
12:38 1024 30.24 854 25.22 23.4 74 43 10.1 50.3 0 0
12:39 1024 30.24 854 25.22 23.6 74.5 39 9 48.2 0 0
12:40 1024 30.24 854 25.22 24 75.1 40 9.6 49.3 0 0
12:41 1024 30.24 854 25.22 24.2 75.5 37 8.9 48 0 0
12:42 1024 30.24 854 25.22 24.1 75.3 35 7.9 46.3 0 0
12:43 1024 30.24 854 25.22 23.9 75 42 10.4 50.7 0 0
12:44 1024 30.24 854 25.22 24.1 75.3 41 10 50.1 0 0
12:45 1024 30.24 854 25.22 24.2 75.6 39 9.6 49.3 0 0
12:46 1024 30.24 854 25.22 24 75.3 34 7.3 45.1 0 0
12:47 1024 30.24 853 25.19 23.9 75 37 8.7 47.7 0 0
12:48 1024 30.24 853 25.19 24 75.1 38 9 48.3 0 0
12:49 1024 30.24 853 25.19 24.1 75.4 39 9.4 48.9 0 0
12:50 1024 30.24 853 25.19 24.3 75.8 39 9.7 49.5 0 0
12:51 1024 30.24 853 25.19 24.6 76.2 38 9.4 49 0 0
12:52 1024 30.24 853 25.19 24.6 76.2 34 8 46.3 0 0
12:53 1024 30.24 853 25.19 24.5 76.2 40 10.2 50.3 0 0
12:54 1024 30.24 853 25.19 24.6 76.2 36 8.8 47.8 0 0
12:55 1024 30.24 853 25.19 24.5 76 40 10.1 50.1 0 0
12:56 1024 30.24 853 25.19 24.4 76 39 9.7 49.5 0 0
12:57 1024 30.24 853 25.19 24.4 75.9 36 8.5 47.4 0 0
12:58 1024 30.24 853 25.19 24.4 75.9 41 10.5 50.9 0 0
12:59 1024 30.24 853 25.19 24.5 76 33 7.4 45.3 0 0
13:00 1024 30.24 853 25.19 24.5 76 37 9.1 48.3 0 0
13:01 1024 30.24 853 25.19 24.5 76.1 36 8.6 47.5 0 0
13:02 1024 30.24 853 25.19 24.7 76.4 37 9.1 48.3 0 0
13:03 1024 30.24 853 25.19 24.9 76.8 33 7.6 45.7 0 0
13:04 1024 30.24 853 25.19 24.9 76.9 32 7.5 45.6 0 0
13:05 1024 30.24 853 25.19 25.1 77.1 31 7.1 44.7 0 0
13:06 1024 30.24 853 25.19 25 77 31 6.8 44.3 0 0
13:07 1024 30.24 853 25.19 24.9 76.9 32 7.5 45.5 0 0
13:08 1024 30.24 853 25.19 24.9 76.9 34 8.4 47.1 0 0
13:09 1024 30.24 853 25.19 25 77.1 37 9.8 49.6 0 0
13:10 1024 30.24 853 25.19 25 77 33 8.1 46.5 0 0
13:11 1024 30.24 853 25.19 24.9 76.8 38 9.8 49.6 0 0
13:12 1024 30.24 853 25.19 24.9 76.8 35 8.6 47.5 0 0
13:13 1024 30.24 853 25.19 25.1 77.1 37 9.7 49.4 0 0
13:14 1024 30.24 853 25.19 25.2 77.3 32 7.6 45.6 0 0
13:15 1024 30.24 853 25.19 25.1 77.3 34 8.5 47.4 0 0
13:16 1024 30.24 853 25.19 25 77 33 8 46.5 0 0
13:17 1024 30.24 853 25.19 24.9 76.8 33 7.9 46.2 0 0
13:18 1024 30.24 853 25.19 25 76.9 34 8.2 46.8 0 0
13:19 1024 30.24 853 25.19 25 77 34 8.3 46.9 0 0
13:20 1024 30.24 853 25.19 25 77 32 7.3 45.2 0 0
13:21 1024 30.24 853 25.19 25 77.1 32 7.3 45.2 0 0
13:22 1024 30.24 853 25.19 25.1 77.1 32 7.7 45.8 0 0
13:23 1024 30.24 853 25.19 25.2 77.3 32 7.4 45.3 0 0
13:24 1024 30.24 853 25.19 25.2 77.3 32 7.3 45.2 0 0
13:25 1024 30.24 853 25.19 25.1 77.3 31 7.2 45 0 0
13:26 1024 30.24 853 25.19 25.2 77.3 33 8 46.3 0 0
13:27 1024 30.24 853 25.19 25.4 77.7 31 7.2 44.9 0 0
13:28 1024 30.24 853 25.19 25.4 77.8 35 9 48.3 0 0
13:29 1024 30.24 853 25.19 25.6 78 33 8.3 47 0 0
13:30 1024 30.24 853 25.19 25.8 78.4 33 8.4 47.2 0 0
13:31 1024 30.24 853 25.19 25.9 78.6 33 8.5 47.2 0 0
13:32 1024 30.24 853 25.19 25.9 78.6 35 9.6 49.2 0 0
13:33 1024 30.24 853 25.19 25.8 78.4 31 7.6 45.6 0 0
13:34 1024 30.24 853 25.19 25.9 78.6 32 8.1 46.5 0 0
13:35 1024 30.24 853 25.19 26 78.9 32 8.2 46.8 0 0
13:36 1024 30.24 853 25.19 25.8 78.5 38 10.5 50.9 0 0
13:37 1024 30.24 853 25.19 25.7 78.3 32 8.2 46.8 0 0
13:38 1024 30.24 853 25.19 25.6 78.1 32 8 46.4 0 0
13:39 1024 30.24 853 25.19 25.6 78 31 7.6 45.6 0 0
13:40 1024 30.24 853 25.19 25.7 78.2 32 7.9 46.2 0 0
13:41 1024 30.24 853 25.19 25.8 78.4 33 8.5 47.4 0 0
13:42 1024 30.24 853 25.19 25.9 78.6 33 8.5 47.3 0 0
13:43 1024 30.24 853 25.19 26.1 78.9 35 9.7 49.5 0 0
13:44 1024 30.24 853 25.19 26.1 79.1 29 7.2 44.9 0 0
13:45 1024 30.24 853 25.19 26.2 79.1 31 7.9 46.2 0 0
13:46 1024 30.24 853 25.19 26.3 79.3 32 8.7 47.6 0 0
13:47 1024 30.24 853 25.19 26.4 79.5 30 7.9 46.2 0 0
13:48 1024 30.24 853 25.19 26.2 79.1 30 7.3 45.1 0 0
13:49 1024 30.24 853 25.19 26.2 79.1 32 8.4 47.1 0 0
13:50 1024 30.24 853 25.19 26.4 79.4 30 7.6 45.7 0 0
13:51 1024 30.24 853 25.19 26.4 79.6 30 7.8 46 0 0
13:52 1024 30.24 853 25.19 26.4 79.4 30 7.9 46.2 0 0
13:53 1024 30.24 853 25.19 26.1 79.1 29 7 44.6 0 0
13:54 1024 30.24 853 25.19 26 78.8 29 7 44.5 0 0
13:55 1024 30.24 853 25.19 26 78.8 31 7.6 45.7 0 0
13:56 1024 30.24 853 25.19 26.2 79.1 31 8.1 46.5 0 0
13:57 1024 30.24 853 25.19 26.2 79.2 29 7.3 45.1 0 0
13:58 1024 30.24 853 25.19 26.2 79.2 31 7.9 46.3 0 0
13:59 1024 30.24 853 25.19 26.2 79.2 31 7.9 46.2 0 0
14:00 1024 30.24 853 25.19 26.3 79.3 30 7.6 45.6 0 0
14:01 1024 30.24 853 25.19 26.3 79.3 31 7.9 46.2 0 0
14:02 1024 30.24 853 25.19 26.4 79.5 32 8.4 47.2 0 0
14:03 1024 30.24 853 25.19 26.7 80 31 8.3 47 0 0
14:04 1024 30.24 853 25.19 26.5 79.6 31 8 46.5 0 0
14:05 1024 30.24 853 25.19 26.2 79.2 30 7.5 45.6 0 0
14:06 1024 30.24 853 25.19 26.3 79.3 34 9.4 48.8 0 0
14:07 1024 30.24 853 25.19 26.4 79.6 27 6.4 43.6 0 0
14:08 1024 30.24 853 25.19 26.3 79.3 30 7.7 45.9 0 0
14:09 1024 30.24 853 25.19 26.4 79.5 31 8 46.3 0 0
14:10 1024 30.24 853 25.19 26.6 79.9 30 7.7 45.9 0 0
14:11 1024 30.24 853 25.19 26.7 80.1 31 8.6 47.5 0 0
14:12 1024 30.24 853 25.19 26.9 80.3 29 7.8 46 0 0
14:13 1024 30.24 853 25.19 26.9 80.3 28 7.2 45 0 0
14:14 1024 30.24 853 25.19 26.8 80.3 30 7.9 46.2 0 0
14:15 1024 30.24 853 25.19 26.8 80.3 28 7.3 45.1 0 0
14:16 1024 30.24 853 25.19 26.8 80.2 30 8.1 46.7 0 0
14:17 1024 30.24 853 25.19 26.8 80.2 28 7 44.7 0 0
14:18 1024 30.24 853 25.19 26.8 80.2 27 6.2 43.2 0 0
14:19 1024 30.24 853 25.19 26.7 80 29 7.5 45.6 0 0
14:20 1024 30.24 853 25.19 26.9 80.3 32 9.1 48.4 0 0
14:21 1024 30.24 853 25.19 26.9 80.4 32 9 48.1 0 0
14:22 1024 30.24 853 25.19 26.9 80.3 31 8.6 47.5 0 0
14:23 1024 30.24 853 25.19 26.9 80.5 33 9.7 49.4 0 0
14:24 1024 30.24 853 25.19 27 80.6 26 6.2 43.1 0 0
14:25 1024 30.24 853 25.19 26.9 80.4 27 6.4 43.5 0 0
14:26 1024 30.24 853 25.19 27 80.6 26 6.2 43.2 0 0
14:27 1024 30.24 853 25.19 27.2 81 29 8.1 46.6 0 0
14:28 1024 30.24 853 25.19 27.3 81.1 29 8 46.4 0 0
14:29 1024 30.24 853 25.19 27.3 81.2 29 8 46.4 0 0
14:30 1024 30.24 853 25.19 27.3 81.1 33 9.7 49.4 0 0
14:31 1024 30.24 853 25.19 27.2 80.9 31 8.8 47.9 0 0
14:32 1024 30.24 853 25.19 27.1 80.7 28 7.3 45.2 0 0
14:33 1023 30.21 853 25.19 27 80.5 31 8.5 47.3 0 0
14:34 1024 30.24 853 25.19 26.9 80.4 31 8.4 47.2 0 0
14:35 1023 30.21 853 25.19 26.8 80.2 28 6.8 44.3 0 0
14:36 1023 30.21 853 25.19 26.7 80 32 9 48.2 0 0
14:37 1023 30.21 853 25.19 26.7 80 32 9 48.2 0 0
14:38 1023 30.21 853 25.19 26.9 80.3 30 8 46.4 0 0
14:39 1023 30.21 853 25.19 26.9 80.4 30 8.2 46.7 0 0
14:40 1023 30.21 853 25.19 26.9 80.5 30 7.9 46.3 0 0
14:41 1023 30.21 853 25.19 27 80.7 31 8.7 47.7 0 0
14:42 1023 30.21 853 25.19 27.1 80.7 30 8.4 47.2 0 0
14:43 1023 30.21 853 25.19 27.1 80.8 28 7.3 45.2 0 0
14:44 1023 30.21 853 25.19 27.2 80.9 29 7.7 45.9 0 0
14:45 1023 30.21 853 25.19 27.3 81.1 27 7.1 44.7 0 0
14:46 1023 30.21 853 25.19 27.4 81.2 27 6.9 44.4 0 0
14:47 1023 30.21 853 25.19 27.5 81.4 32 9.7 49.4 0 0
14:48 1023 30.21 853 25.19 27.5 81.5 29 8.2 46.8 0 0
14:49 1023 30.21 853 25.19 27.4 81.4 29 8.1 46.7 0 0
14:50 1023 30.21 853 25.19 27.2 81 27 7.2 44.9 0 0
14:51 1023 30.21 852 25.16 27.1 80.9 29 8.1 46.5 0 0
14:52 1023 30.21 853 25.19 27.1 80.8 29 7.7 45.8 0 0
14:53 1023 30.21 852 25.16 27.2 80.9 31 8.7 47.7 0 0
14:54 1023 30.21 852 25.16 27.3 81.1 32 9.3 48.7 0 0
14:55 1023 30.21 852 25.16 27.4 81.3 30 8.3 47 0 0
14:56 1023 30.21 852 25.16 27.4 81.4 27 7.1 44.7 0 0
14:57 1023 30.21 852 25.16 27.2 81 29 8.1 46.5 0 0
14:58 1023 30.21 852 25.16 27.1 80.8 28 7.5 45.5 0 0
14:59 1023 30.21 852 25.16 27.2 80.9 30 8.3 47 0 0
15:00 1023 30.21 852 25.16 27.1 80.8 28 7.5 45.6 0 0
15:01 1023 30.21 852 25.16 27 80.6 28 7.2 44.9 0 0
15:02 1023 30.21 852 25.16 27 80.7 32 9.3 48.7 0 0
15:03 1023 30.21 852 25.16 27.2 80.9 31 8.9 48 0 0
15:04 1023 30.21 852 25.16 27.3 81.1 29 8.1 46.5 0 0
15:05 1023 30.21 852 25.16 27.2 81 30 8.5 47.3 0 0
15:06 1023 30.21 852 25.16 27.1 80.8 30 8.3 47 0 0
15:07 1023 30.21 852 25.16 27.2 80.9 27 6.7 44 0 0
15:08 1023 30.21 852 25.16 27.1 80.8 32 9.3 48.7 0 0
15:09 1023 30.21 852 25.16 27.1 80.7 30 8.1 46.5 0 0
15:10 1023 30.21 852 25.16 27.1 80.8 27 6.8 44.2 0 0
15:11 1023 30.21 852 25.16 27.3 81.1 32 9.2 48.6 0 0
15:12 1023 30.21 852 25.16 27.4 81.4 30 8.8 47.8 0 0
15:13 1023 30.21 852 25.16 27.5 81.5 27 7.2 45 0 0
15:14 1023 30.21 852 25.16 27.5 81.4 26 6.3 43.3 0 0
15:15 1023 30.21 852 25.16 27.4 81.2 29 7.9 46.3 0 0
15:16 1023 30.21 852 25.16 27.2 81 28 7.6 45.7 0 0
15:17 1023 30.21 852 25.16 27.3 81.1 28 7.7 45.9 0 0
15:18 1023 30.21 852 25.16 27.4 81.3 28 7.8 46 0 0
15:19 1023 30.21 852 25.16 27.6 81.6 29 8.3 46.9 0 0
15:20 1023 30.21 852 25.16 27.8 82 27 7.3 45.1 0 0
15:21 1023 30.21 852 25.16 27.8 82 27 7.5 45.4 0 0
15:22 1023 30.21 852 25.16 27.7 81.9 25 6.3 43.3 0 0
15:23 1023 30.21 852 25.16 27.5 81.5 24 5.6 42.2 0 0
15:24 1023 30.21 852 25.16 27.4 81.3 27 7.2 44.9 0 0
15:25 1023 30.21 852 25.16 27.3 81.2 26 6.5 43.7 0 0
15:26 1023 30.21 852 25.16 27.2 81 28 7.6 45.7 0 0
15:27 1023 30.21 852 25.16 27.3 81.1 26 6.2 43.2 0 0
15:28 1023 30.21 852 25.16 27.3 81.1 26 6.2 43.2 0 0
15:29 1023 30.21 852 25.16 27.3 81.1 24 5.3 41.5 0 0
15:30 1023 30.21 852 25.16 27.4 81.4 25 5.8 42.5 0 0
15:31 1023 30.21 852 25.16 27.6 81.7 27 7.1 44.8 0 0
15:32 1023 30.21 852 25.16 27.6 81.7 28 7.7 45.9 0 0
15:33 1023 30.21 852 25.16 27.7 81.9 27 7.1 44.7 0 0
15:34 1023 30.21 852 25.16 27.7 81.8 29 8.1 46.6 0 0
15:35 1023 30.21 852 25.16 27.7 81.8 27 7.1 44.8 0 0
15:36 1023 30.21 852 25.16 27.6 81.7 26 6.8 44.3 0 0
15:37 1023 30.21 852 25.16 27.5 81.5 25 5.8 42.5 0 0
15:38 1023 30.21 852 25.16 27.4 81.3 27 7 44.7 0 0
15:39 1023 30.21 852 25.16 27.3 81.2 27 6.8 44.2 0 0
15:40 1023 30.21 852 25.16 27.3 81.1 25 6.1 43 0 0
15:41 1023 30.21 852 25.16 27.3 81.2 26 6.6 43.9 0 0
15:42 1023 30.21 852 25.16 27.3 81.2 25 6 42.9 0 0
15:43 1023 30.21 852 25.16 27.3 81.1 26 6.2 43.2 0 0
15:44 1023 30.21 852 25.16 27.2 81 29 7.8 46 0 0
15:45 1023 30.21 852 25.16 27.2 80.9 25 6 42.8 0 0
15:46 1023 30.21 852 25.16 27.2 81 28 7.6 45.6 0 0
15:47 1023 30.21 852 25.16 27.3 81.1 29 7.8 46.1 0 0
15:48 1023 30.21 852 25.16 27.2 81 29 7.8 46.1 0 0
15:49 1023 30.21 852 25.16 27.1 80.9 26 6.3 43.4 0 0
15:50 1023 30.21 852 25.16 27.1 80.8 26 6.3 43.4 0 0
15:51 1023 30.21 852 25.16 27.1 80.7 30 8.3 46.9 0 0
15:52 1023 30.21 852 25.16 27.2 80.9 28 7.4 45.4 0 0
15:53 1023 30.21 852 25.16 27.3 81.2 26 6.3 43.4 0 0
15:54 1023 30.21 852 25.16 27.4 81.4 25 5.9 42.7 0 0
15:55 1023 30.21 852 25.16 27.4 81.3 26 6.6 43.8 0 0
15:56 1023 30.21 852 25.16 27.4 81.3 25 5.7 42.3 0 0
15:57 1023 30.21 852 25.16 27.5 81.4 27 7.3 45.1 0 0
15:58 1023 30.21 852 25.16 27.5 81.5 24 5.6 42.1 0 0
15:59 1023 30.21 852 25.16 27.6 81.6 23 5 41 0 0
16:00 1023 30.21 852 25.16 27.7 81.8 28 7.6 45.7 0 0
16:01 1023 30.21 852 25.16 27.7 81.9 23 4.9 40.8 0 0
16:02 1023 30.21 852 25.16 27.7 81.8 26 6.6 44 0 0
16:03 1023 30.21 852 25.16 27.8 82 25 6 42.8 0 0
16:04 1023 30.21 852 25.16 28 82.3 28 7.8 46.1 0 0
16:05 1023 30.21 852 25.16 28 82.4 24 5.8 42.4 0 0
16:06 1023 30.21 852 25.16 27.9 82.1 27 7.3 45.2 0 0
16:07 1023 30.21 852 25.16 27.8 82 29 8.3 47 0 0
16:08 1023 30.21 852 25.16 27.8 82 27 7.1 44.9 0 0
16:09 1023 30.21 852 25.16 27.8 82.1 24 5.4 41.8 0 0
16:10 1023 30.21 852 25.16 27.7 81.9 26 6.6 43.8 0 0
16:11 1023 30.21 852 25.16 27.6 81.8 24 5.7 42.3 0 0
16:12 1023 30.21 852 25.16 27.6 81.6 25 5.8 42.5 0 0
16:13 1023 30.21 852 25.16 27.5 81.5 25 6.1 43 0 0
16:14 1023 30.21 852 25.16 27.5 81.4 22 4.4 40 0 0
16:15 1023 30.21 852 25.16 27.5 81.4 23 4.5 40.1 0 0
16:16 1023 30.21 852 25.16 27.5 81.6 24 5.4 41.7 0 0
16:17 1023 30.21 852 25.16 27.6 81.7 21 3.6 38.5 0 0
16:18 1023 30.21 852 25.16 27.7 81.8 23 4.7 40.5 0 0
16:19 1023 30.21 852 25.16 27.7 81.9 22 4.5 40.1 0 0
16:20 1023 30.21 852 25.16 27.9 82.1 22 4.6 40.2 0 0
16:21 1023 30.21 852 25.16 28 82.3 24 5.6 42.1 0 0
16:22 1023 30.21 852 25.16 28 82.5 23 5.1 41.2 0 0
16:23 1023 30.21 852 25.16 28.2 82.8 23 5.2 41.3 0 0
16:24 1023 30.21 852 25.16 28.5 83.3 22 5 40.9 0 0
16:25 1023 30.21 852 25.16 28.6 83.6 24 6.2 43.2 0 0
16:26 1023 30.21 852 25.16 28.6 83.5 26 7.5 45.5 0 0
16:27 1023 30.21 852 25.16 28.6 83.6 21 4.8 40.6 0 0
16:28 1023 30.21 852 25.16 28.5 83.3 23 5.4 41.7 0 0
16:29 1023 30.21 852 25.16 28.4 83.1 22 5.1 41.1 0 0
16:30 1023 30.21 852 25.16 28.4 83 21 4.1 39.3 0 0
16:31 1023 30.21 852 25.16 28.4 83.1 23 5.6 42.1 0 0
16:32 1023 30.21 852 25.16 28.4 83.1 21 4.2 39.5 0 0
16:33 1023 30.21 852 25.16 28.4 83.2 25 6.9 44.3 0 0
16:34 1023 30.21 852 25.16 28.4 83.2 27 7.9 46.2 0 0
16:35 1023 30.21 852 25.16 28.5 83.3 26 7.4 45.3 0 0
16:36 1023 30.21 852 25.16 28.6 83.4 23 5.7 42.2 0 0
16:37 1023 30.21 852 25.16 28.4 83.1 25 6.5 43.7 0 0
16:38 1023 30.21 852 25.16 28.2 82.8 20 3.6 38.5 0 0
16:39 1023 30.21 852 25.16 28.2 82.7 24 6.2 43.2 0 0
16:40 1023 30.21 852 25.16 28.2 82.8 25 6.4 43.5 0 0
16:41 1023 30.21 852 25.16 28.2 82.8 19 2.7 36.9 0 0
16:42 1023 30.21 852 25.16 28.2 82.7 22 4.7 40.4 0 0
16:43 1023 30.21 852 25.16 28.2 82.7 22 4.7 40.5 0 0
16:44 1023 30.21 852 25.16 28.2 82.7 22 5 41.1 0 0
16:45 1022 30.18 852 25.16 28.2 82.7 21 4.2 39.6 0 0
16:46 1022 30.18 852 25.16 28.1 82.6 23 5 41.1 0 0
16:47 1022 30.18 852 25.16 28.1 82.6 22 4.5 40.1 0 0
16:48 1022 30.18 852 25.16 28.1 82.6 22 4.5 40.1 0 0
16:49 1022 30.18 852 25.16 28.1 82.7 23 5.7 42.2 0 0
16:50 1022 30.18 852 25.16 28.1 82.6 20 3.2 37.8 0 0
16:51 1022 30.18 852 25.16 28.3 83 19 3 37.4 0 0
16:52 1022 30.18 852 25.16 28.5 83.2 17 1.7 35 0 0
16:53 1022 30.18 852 25.16 28.4 83.2 21 4.6 40.2 0 0
16:54 1022 30.18 852 25.16 28.4 83.1 20 3.8 38.8 0 0
16:55 1022 30.18 852 25.16 28.5 83.2 23 5.4 41.8 0 0
16:56 1022 30.18 852 25.16 28.3 83 22 5.1 41.1 0 0
16:57 1022 30.18 852 25.16 28.3 82.9 23 5.2 41.4 0 0
16:58 1022 30.18 852 25.16 28.2 82.8 22 4.7 40.5 0 0
16:59 1022 30.18 852 25.16 28.1 82.6 25 6.3 43.3 0 0
17:00 1022 30.18 852 25.16 28.1 82.6 21 4.4 39.9 0 0
17:01 1022 30.18 852 25.16 28.1 82.5 21 3.9 38.9 0 0
17:02 1022 30.18 852 25.16 28.1 82.7 22 4.6 40.3 0 0
17:03 1022 30.18 852 25.16 28.2 82.8 21 4.4 39.8 0 0
17:04 1022 30.18 852 25.16 28.4 83.1 20 3.5 38.3 0 0
17:05 1022 30.18 852 25.16 28.4 83.2 18 2.1 35.8 0 0
17:06 1022 30.18 852 25.16 28.5 83.3 20 3.5 38.3 0 0
17:07 1022 30.18 852 25.16 28.6 83.5 22 5.1 41.2 0 0
17:08 1022 30.18 852 25.16 28.7 83.7 22 5.1 41.2 0 0
17:09 1022 30.18 852 25.16 28.7 83.7 22 5.2 41.4 0 0
17:10 1022 30.18 852 25.16 28.6 83.5 25 6.9 44.3 0 0
17:11 1022 30.18 852 25.16 28.7 83.6 20 3.8 38.8 0 0
17:12 1022 30.18 852 25.16 28.6 83.5 18 2.3 36.2 0 0
17:13 1022 30.18 852 25.16 28.6 83.5 17 1.6 34.9 0 0
17:14 1022 30.18 852 25.16 28.7 83.6 20 4 39.2 0 0
17:15 1022 30.18 852 25.16 28.8 83.8 23 5.9 42.6 0 0
17:16 1022 30.18 852 25.16 28.9 84 21 4.6 40.2 0 0
17:17 1022 30.18 852 25.16 28.9 84 20 4.3 39.8 0 0
17:18 1022 30.18 852 25.16 28.8 83.8 20 4.2 39.5 0 0
17:19 1022 30.18 852 25.16 28.7 83.6 18 2.2 36 0 0
17:20 1022 30.18 851 25.13 28.6 83.4 22 5 41 0 0
17:21 1022 30.18 851 25.13 28.6 83.5 25 6.8 44.3 0 0
17:22 1022 30.18 851 25.13 28.7 83.6 22 5.4 41.7 0 0
17:23 1022 30.18 851 25.13 28.6 83.5 23 5.9 42.6 0 0
17:24 1022 30.18 851 25.13 28.5 83.3 26 7.5 45.4 0 0
17:25 1022 30.18 851 25.13 28.4 83.1 25 6.6 43.8 0 0
17:26 1022 30.18 851 25.13 28.4 83 23 5.5 41.8 0 0
17:27 1022 30.18 851 25.13 28.3 82.9 27 7.7 45.9 0 0
17:28 1022 30.18 851 25.13 28.2 82.7 26 7 44.6 0 0
17:29 1022 30.18 851 25.13 28 82.5 26 7.3 45.1 0 0
17:30 1022 30.18 851 25.13 28 82.4 31 9.4 48.9 0 0
17:31 1022 30.18 851 25.13 28 82.3 24 5.9 42.6 0 0
17:32 1022 30.18 851 25.13 28 82.3 26 7 44.6 0 0
17:33 1022 30.18 851 25.13 28 82.3 19 2.7 36.9 0 0
17:34 1022 30.18 851 25.13 27.9 82.3 25 6.2 43.1 0 0
17:35 1022 30.18 851 25.13 27.9 82.2 19 2.1 35.8 0 0
17:36 1022 30.18 851 25.13 27.9 82.1 23 5.2 41.3 0 0
17:37 1022 30.18 851 25.13 27.8 82.1 22 4.5 40 0 0
17:38 1022 30.18 851 25.13 27.9 82.1 21 4 39.2 0 0
17:39 1022 30.18 851 25.13 27.9 82.2 20 3.3 37.9 0 0
17:40 1022 30.18 851 25.13 28 82.3 22 4.3 39.7 0 0
17:41 1022 30.18 851 25.13 27.9 82.3 19 2.6 36.7 0 0
17:42 1022 30.18 851 25.13 27.8 82.1 20 3.3 37.9 0 0
17:43 1022 30.18 851 25.13 27.8 82 21 3.7 38.6 0 0
17:44 1022 30.18 851 25.13 27.8 82 19 2 35.6 0 0
17:45 1022 30.18 851 25.13 27.8 82 21 3.4 38.2 0 0
17:46 1022 30.18 851 25.13 27.9 82.1 18 1.6 34.8 0 0
17:47 1022 30.18 851 25.13 27.9 82.2 19 2.8 37.1 0 0
17:48 1022 30.18 851 25.13 28 82.4 21 4.2 39.6 0 0
17:49 1022 30.18 851 25.13 28 82.4 21 3.7 38.7 0 0
17:50 1022 30.18 851 25.13 28.1 82.5 19 2.9 37.3 0 0
17:51 1022 30.18 851 25.13 28.2 82.7 21 3.8 38.8 0 0
17:52 1022 30.18 851 25.13 28.3 82.9 22 4.7 40.4 0 0
17:53 1022 30.18 851 25.13 28.4 83.1 26 7.4 45.3 0 0
17:54 1022 30.18 851 25.13 28.4 83 21 4.1 39.3 0 0
17:55 1022 30.18 851 25.13 28.3 82.9 19 2.7 36.8 0 0
17:56 1022 30.18 851 25.13 28.1 82.6 24 5.8 42.5 0 0
17:57 1022 30.18 851 25.13 28.1 82.6 24 5.9 42.6 0 0
17:58 1022 30.18 851 25.13 28 82.5 20 3.2 37.7 0 0
17:59 1022 30.18 851 25.13 28 82.4 21 3.8 38.9 0 0
18:00 1022 30.18 851 25.13 28 82.4 19 2.5 36.4 0 0
18:01 1022 30.18 851 25.13 28.1 82.5 19 2.6 36.6 0 0
18:02 1022 30.18 851 25.13 28.2 82.7 20 3.2 37.8 0 0
18:03 1022 30.18 851 25.13 28.3 83 20 3.7 38.7 0 0
18:04 1022 30.18 851 25.13 28.3 83 21 4.3 39.7 0 0
18:05 1022 30.18 851 25.13 28.4 83 16 0.5 32.9 0 0
18:06 1022 30.18 851 25.13 28.4 83.2 17 1.5 34.7 0 0
18:07 1022 30.18 851 25.13 28.6 83.4 19 2.8 37 0 0
18:08 1022 30.18 851 25.13 28.6 83.6 19 3.1 37.6 0 0
18:09 1022 30.18 851 25.13 28.7 83.7 16 0.7 33.2 0 0
18:10 1022 30.18 851 25.13 28.9 84 17 1.5 34.7 0 0
18:11 1022 30.18 851 25.13 29 84.2 19 3.2 37.8 0 0
18:12 1022 30.18 851 25.13 29.2 84.5 16 1.5 34.7 0 0
18:13 1022 30.18 851 25.13 29.3 84.8 23 6.6 43.9 0 0
18:14 1022 30.18 851 25.13 29.4 84.8 22 5.7 42.3 0 0
18:15 1022 30.18 851 25.13 29.5 85 21 5.5 42 0 0
18:16 1022 30.18 851 25.13 29.6 85.2 22 5.7 42.2 0 0
18:17 1022 30.18 851 25.13 29.5 85.1 15 0.6 33.1 0 0
18:18 1022 30.18 851 25.13 29.4 84.9 20 4.2 39.6 0 0
18:19 1022 30.18 851 25.13 29.3 84.8 19 3.4 38.1 0 0
18:20 1022 30.18 851 25.13 29.2 84.5 23 6.5 43.7 0 0
18:21 1022 30.18 851 25.13 29 84.2 23 6.2 43.2 0 0
18:22 1022 30.18 851 25.13 29 84.1 24 6.6 43.8 0 0
18:23 1022 30.18 851 25.13 28.7 83.7 25 6.9 44.4 0 0
18:24 1022 30.18 851 25.13 28.5 83.4 22 5.3 41.5 0 0
18:25 1022 30.18 851 25.13 28.5 83.2 23 5.7 42.2 0 0
18:26 1022 30.18 851 25.13 28.4 83.2 26 7.1 44.8 0 0
18:27 1022 30.18 851 25.13 28.3 82.9 24 6.1 43.1 0 0
18:28 1022 30.18 851 25.13 28.2 82.7 27 7.6 45.6 0 0
18:29 1022 30.18 851 25.13 28.1 82.6 26 6.9 44.5 0 0
18:30 1022 30.18 851 25.13 28.1 82.6 24 6 42.9 0 0
18:31 1022 30.18 851 25.13 28 82.4 26 6.8 44.3 0 0
18:32 1022 30.18 851 25.13 27.8 82.1 25 6.1 42.9 0 0
18:33 1022 30.18 851 25.13 27.8 82 24 5.6 42.1 0 0
18:34 1022 30.18 851 25.13 27.8 82 20 3.3 38 0 0
18:35 1022 30.18 851 25.13 27.8 82 23 5.3 41.6 0 0
18:36 1022 30.18 851 25.13 27.8 82 22 4.6 40.3 0 0
18:37 1022 30.18 851 25.13 27.9 82.1 19 2.1 35.8 0 0
18:38 1022 30.18 851 25.13 27.9 82.2 23 5.2 41.3 0 0
18:39 1022 30.18 851 25.13 28 82.4 27 7.7 45.8 0 0
18:40 1022 30.18 851 25.13 27.9 82.1 23 5.2 41.4 0 0
18:41 1022 30.18 851 25.13 27.7 81.9 23 4.9 40.9 0 0
18:42 1022 30.18 851 25.13 27.6 81.7 25 6 42.9 0 0
18:43 1022 30.18 851 25.13 27.5 81.5 25 6.2 43.2 0 0
18:44 1022 30.18 851 25.13 27.5 81.4 27 6.9 44.4 0 0
18:45 1022 30.18 851 25.13 27.4 81.3 19 2.3 36.1 0 0
18:46 1022 30.18 851 25.13 27.4 81.2 19 2 35.7 0 0
18:47 1022 30.18 851 25.13 27.4 81.4 21 3.7 38.6 0 0
18:48 1022 30.18 851 25.13 27.5 81.4 25 6 42.9 0 0
18:49 1022 30.18 851 25.13 27.4 81.4 23 4.5 40 0 0
18:50 1022 30.18 851 25.13 27.4 81.4 26 6.5 43.7 0 0
18:51 1022 30.18 851 25.13 27.3 81.2 26 6.3 43.3 0 0
18:52 1022 30.18 851 25.13 27.2 81 27 6.7 44.1 0 0
18:53 1022 30.18 851 25.13 27.2 81 24 5 41 0 0
18:54 1022 30.18 851 25.13 27.3 81.1 25 6 42.8 0 0
18:55 1022 30.18 851 25.13 27.2 81 25 5.7 42.3 0 0
18:56 1022 30.18 851 25.13 27.1 80.8 26 6.2 43.2 0 0
18:57 1022 30.18 851 25.13 27 80.6 27 6.9 44.5 0 0
18:58 1022 30.18 851 25.13 26.9 80.3 27 6.3 43.3 0 0
18:59 1022 30.18 851 25.13 26.8 80.3 26 6 42.7 0 0
19:00 1022 30.18 851 25.13 26.8 80.2 25 5.5 42 0 0
19:01 1022 30.18 851 25.13 26.8 80.3 28 6.9 44.4 0 0
19:02 1022 30.18 851 25.13 26.7 80 26 6.1 42.9 0 0
19:03 1022 30.18 851 25.13 26.6 79.9 27 6.3 43.3 0 0
19:04 1022 30.18 851 25.13 26.6 79.8 27 6.1 43 0 0
19:05 1022 30.18 851 25.13 26.6 79.8 27 6.2 43.1 0 0
19:06 1022 30.18 851 25.13 26.6 79.8 27 6.3 43.4 0 0
19:07 1022 30.18 851 25.13 26.5 79.8 28 6.9 44.4 0 0
19:08 1022 30.18 851 25.13 26.5 79.7 27 6.1 43 0 0
19:09 1022 30.18 851 25.13 26.5 79.7 26 5.9 42.6 0 0
19:10 1022 30.18 851 25.13 26.4 79.6 27 6.3 43.3 0 0
19:11 1022 30.18 851 25.13 26.3 79.4 28 6.4 43.5 0 0
19:12 1022 30.18 851 25.13 26.3 79.4 28 6.5 43.8 0 0
19:13 1022 30.18 851 25.13 26.3 79.3 27 5.8 42.5 0 0
19:14 1022 30.18 851 25.13 26.3 79.3 27 5.9 42.6 0 0
19:15 1022 30.18 851 25.13 26.2 79.2 27 6 42.8 0 0
19:16 1022 30.18 851 25.13 26.2 79.2 27 5.8 42.5 0 0
19:17 1022 30.18 851 25.13 26.1 79.1 29 6.7 44.1 0 0
19:18 1022 30.18 851 25.13 26.1 79 27 6.1 42.9 0 0
19:19 1022 30.18 851 25.13 26.1 79 27 6.1 43.1 0 0
19:20 1022 30.18 851 25.13 26.1 78.9 28 6.3 43.3 0 0
19:21 1022 30.18 851 25.13 26 78.9 29 6.9 44.4 0 0
19:22 1022 30.18 851 25.13 26 78.8 30 7.1 44.9 0 0
19:23 1022 30.18 851 25.13 25.9 78.5 30 7 44.6 0 0
19:24 1022 30.18 851 25.13 25.8 78.4 29 6.6 43.9 0 0
19:25 1022 30.18 851 25.13 25.8 78.4 28 6.4 43.5 0 0
19:26 1022 30.18 851 25.13 25.8 78.4 28 6.1 43.1 0 0
19:27 1022 30.18 851 25.13 25.8 78.5 28 6.1 43 0 0
19:28 1022 30.18 851 25.13 25.8 78.4 28 6.4 43.5 0 0
19:29 1022 30.18 851 25.13 25.7 78.2 29 6.4 43.6 0 0
19:30 1022 30.18 851 25.13 25.6 78.1 29 6.7 44.1 0 0
19:31 1022 30.18 851 25.13 25.6 78 28 6.2 43.1 0 0
19:32 1022 30.18 851 25.13 25.6 78 28 6.2 43.2 0 0
19:33 1022 30.18 851 25.13 25.5 77.9 28 6.1 43 0 0
19:34 1022 30.18 851 25.13 25.5 77.8 29 6.5 43.7 0 0
19:35 1022 30.18 851 25.13 25.4 77.7 29 6.4 43.5 0 0
19:36 1022 30.18 851 25.13 25.4 77.6 29 6.4 43.5 0 0
19:37 1022 30.18 851 25.13 25.3 77.5 29 6.2 43.1 0 0
19:38 1022 30.18 851 25.13 25.3 77.5 30 6.8 44.3 0 0
19:39 1022 30.18 851 25.13 25.2 77.3 29 6.2 43.2 0 0
19:40 1022 30.18 851 25.13 25.2 77.4 29 6.2 43.2 0 0
19:41 1022 30.18 851 25.13 25.2 77.3 29 6.3 43.3 0 0
19:42 1022 30.18 851 25.13 25.1 77.2 30 6.4 43.5 0 0
19:43 1022 30.18 851 25.13 25.1 77.1 29 6.2 43.1 0 0
19:44 1022 30.18 851 25.13 25 77 30 6.3 43.3 0 0
19:45 1022 30.18 851 25.13 25 77.1 30 6.3 43.3 0 0
19:46 1022 30.18 851 25.13 25.1 77.1 29 6.3 43.3 0 0
19:47 1022 30.18 851 25.13 25 77 30 6.4 43.5 0 0
19:48 1022 30.18 851 25.13 24.9 76.9 30 6.2 43.2 0 0
19:49 1022 30.18 851 25.13 25 76.9 30 6.6 43.8 0 0
19:50 1022 30.18 851 25.13 24.8 76.7 31 6.6 43.8 0 0
19:51 1022 30.18 851 25.13 24.7 76.5 31 6.5 43.6 0 0
19:52 1022 30.18 851 25.13 24.6 76.2 31 6.6 43.9 0 0
19:53 1022 30.18 851 25.13 24.5 76.1 31 6.5 43.8 0 0
19:54 1022 30.18 851 25.13 24.4 76 32 6.7 44 0 0
19:55 1022 30.18 851 25.13 24.4 75.8 32 6.7 44 0 0
19:56 1022 30.18 851 25.13 24.3 75.7 32 6.7 44.1 0 0
19:57 1022 30.18 851 25.13 24.2 75.6 32 6.7 44 0 0
19:58 1022 30.18 851 25.13 24.2 75.6 32 6.9 44.4 0 0
19:59 1022 30.18 851 25.13 24.1 75.4 32 6.8 44.3 0 0
20:00 1022 30.18 851 25.13 24.1 75.3 32 6.7 44 0 0
20:01 1022 30.18 851 25.13 24.1 75.3 33 6.8 44.2 0 0
20:02 1022 30.18 851 25.13 24 75.2 32 6.6 43.9 0 0
20:03 1022 30.18 851 25.13 24.1 75.3 32 6.5 43.7 0 0
20:04 1022 30.18 851 25.13 24 75.3 32 6.7 44.1 0 0
20:05 1022 30.18 851 25.13 24 75.2 32 6.7 44.1 0 0
20:06 1022 30.18 851 25.13 23.9 75.1 32 6.6 43.9 0 0
20:07 1022 30.18 851 25.13 23.9 75 33 6.7 44.1 0 0
20:08 1022 30.18 851 25.13 23.9 75 33 6.7 44 0 0
20:09 1022 30.18 851 25.13 23.9 74.9 33 6.9 44.3 0 0
20:10 1022 30.18 851 25.13 23.8 74.9 33 6.8 44.2 0 0
20:11 1022 30.18 851 25.13 23.8 74.8 33 6.6 44 0 0
20:12 1022 30.18 851 25.13 23.8 74.8 33 6.7 44.1 0 0
20:13 1022 30.18 851 25.13 23.7 74.7 33 6.7 44 0 0
20:14 1022 30.18 851 25.13 23.8 74.8 33 6.8 44.3 0 0
20:15 1022 30.18 851 25.13 23.7 74.6 33 6.8 44.3 0 0
20:16 1022 30.18 851 25.13 23.6 74.5 33 6.7 44.1 0 0
20:17 1022 30.18 851 25.13 23.6 74.5 34 6.9 44.3 0 0
20:18 1022 30.18 851 25.13 23.5 74.3 34 6.8 44.2 0 0
20:19 1022 30.18 851 25.13 23.4 74.2 34 6.9 44.5 0 0
20:20 1022 30.18 851 25.13 23.4 74.1 33 6.6 43.9 0 0
20:21 1022 30.18 851 25.13 23.4 74.2 35 7.1 44.8 0 0
20:22 1022 30.18 851 25.13 23.4 74 34 6.6 43.9 0 0
20:23 1022 30.18 851 25.13 23.4 74.1 34 6.9 44.3 0 0
20:24 1022 30.18 851 25.13 23.4 74 34 6.9 44.5 0 0
20:25 1022 30.18 851 25.13 23.3 74 34 7 44.6 0 0
20:26 1022 30.18 851 25.13 23.3 73.9 34 6.6 43.9 0 0
20:27 1022 30.18 851 25.13 23.3 74 34 6.7 44.1 0 0
20:28 1022 30.18 851 25.13 23.3 74 34 6.7 44.1 0 0
20:29 1022 30.18 851 25.13 23.3 73.9 34 6.8 44.3 0 0
20:30 1022 30.18 851 25.13 23.3 73.9 34 6.9 44.4 0 0
20:31 1022 30.18 851 25.13 23.2 73.7 34 6.7 44 0 0
20:32 1022 30.18 851 25.13 23.2 73.7 34 6.8 44.2 0 0
20:33 1022 30.18 851 25.13 23.2 73.8 34 6.8 44.2 0 0
20:34 1022 30.18 851 25.13 23.3 73.9 34 6.6 44 0 0
20:35 1022 30.18 851 25.13 23.3 73.9 34 6.7 44.1 0 0
20:36 1022 30.18 851 25.13 23.3 73.9 34 6.7 44.1 0 0
20:37 1022 30.18 851 25.13 23.2 73.8 34 6.6 43.8 0 0
20:38 1022 30.18 851 25.13 23.3 73.9 33 6.5 43.8 0 0
20:39 1022 30.18 851 25.13 23.3 74 34 6.8 44.2 0 0
20:40 1022 30.18 851 25.13 23.2 73.8 34 6.6 43.8 0 0
20:41 1022 30.18 851 25.13 23.3 73.9 34 6.8 44.2 0 0
20:42 1022 30.18 851 25.13 23.2 73.7 34 6.8 44.2 0 0
20:43 1022 30.18 851 25.13 23.2 73.7 35 6.9 44.4 0 0
20:44 1022 30.18 851 25.13 23.1 73.5 34 6.7 44.1 0 0
20:45 1022 30.18 851 25.13 23.1 73.6 35 7 44.5 0 0
20:46 1022 30.18 851 25.13 23.1 73.5 35 6.8 44.2 0 0
20:47 1022 30.18 851 25.13 23 73.4 35 7 44.6 0 0
20:48 1022 30.18 851 25.13 23 73.4 35 6.9 44.4 0 0
20:49 1022 30.18 851 25.13 22.9 73.3 35 7 44.6 0 0
20:50 1022 30.18 851 25.13 22.9 73.3 36 7.2 44.9 0 0
20:51 1022 30.18 851 25.13 22.8 73.1 35 6.8 44.3 0 0
20:52 1022 30.18 851 25.13 22.9 73.1 35 6.9 44.4 0 0
20:53 1022 30.18 851 25.13 22.9 73.1 35 6.9 44.4 0 0
20:54 1022 30.18 851 25.13 22.8 73.1 35 6.9 44.4 0 0
20:55 1022 30.18 851 25.13 22.8 73 36 6.9 44.5 0 0
20:56 1022 30.18 851 25.13 22.7 72.9 36 6.9 44.5 0 0
20:57 1022 30.18 851 25.13 22.7 72.9 36 7 44.7 0 0
20:58 1022 30.18 851 25.13 22.7 72.8 36 7 44.7 0 0
20:59 1022 30.18 851 25.13 22.7 72.8 36 6.9 44.4 0 0
21:00 1022 30.18 851 25.13 22.7 72.8 36 6.9 44.4 0 0
21:01 1022 30.18 851 25.13 22.8 73 35 6.8 44.3 0 0
21:02 1022 30.18 851 25.13 22.8 73.1 35 6.9 44.5 0 0
21:03 1022 30.18 851 25.13 22.8 73.1 35 6.9 44.4 0 0
21:04 1022 30.18 851 25.13 22.8 73.1 35 6.9 44.5 0 0
21:05 1022 30.18 851 25.13 22.8 73 36 7 44.6 0 0
21:06 1022 30.18 851 25.13 22.7 72.9 36 7 44.5 0 0
21:07 1022 30.18 851 25.13 22.6 72.7 36 7.1 44.8 0 0
21:08 1022 30.18 851 25.13 22.5 72.5 37 7.1 44.8 0 0
21:09 1022 30.18 851 25.13 22.5 72.4 36 7 44.5 0 0
21:10 1022 30.18 851 25.13 22.4 72.4 36 7 44.6 0 0
21:11 1022 30.18 851 25.13 22.4 72.2 37 7.1 44.9 0 0
21:12 1022 30.18 851 25.13 22.3 72.2 36 6.8 44.3 0 0
21:13 1022 30.18 851 25.13 22.4 72.2 37 7 44.5 0 0
21:14 1022 30.18 851 25.13 22.3 72.1 37 6.9 44.4 0 0
21:15 1022 30.18 851 25.13 22.3 72.2 37 7.1 44.7 0 0
21:16 1022 30.18 851 25.13 22.2 72 37 7.1 44.8 0 0
21:17 1022 30.18 851 25.13 22.2 72 37 7 44.7 0 0
21:18 1022 30.18 851 25.13 22.2 71.9 37 7.1 44.8 0 0
21:19 1022 30.18 851 25.13 22.1 71.8 37 7 44.6 0 0
21:20 1022 30.18 851 25.13 22.1 71.8 37 6.9 44.5 0 0
21:21 1022 30.18 851 25.13 22.1 71.8 37 6.9 44.4 0 0
21:22 1022 30.18 851 25.13 22.2 71.9 37 7 44.6 0 0
21:23 1022 30.18 851 25.13 22.1 71.8 37 6.8 44.3 0 0
21:24 1022 30.18 851 25.13 22.1 71.7 37 6.9 44.5 0 0
21:25 1022 30.18 851 25.13 22.1 71.7 37 6.9 44.4 0 0
21:26 1022 30.18 851 25.13 22.2 71.9 37 6.9 44.4 0 0
21:27 1022 30.18 851 25.13 22.2 71.9 37 7 44.6 0 0
21:28 1022 30.18 851 25.13 22.1 71.9 36 6.7 44.1 0 0
21:29 1022 30.18 851 25.13 22.2 72 37 6.9 44.4 0 0
21:30 1022 30.18 851 25.13 22.2 71.9 37 6.9 44.5 0 0
21:31 1022 30.18 851 25.13 22.1 71.9 37 6.9 44.5 0 0
21:32 1022 30.18 851 25.13 22.2 72 37 6.9 44.3 0 0
21:33 1022 30.18 851 25.13 22.3 72.1 37 6.9 44.4 0 0
21:34 1022 30.18 851 25.13 22.2 72 37 7 44.5 0 0
21:35 1022 30.18 851 25.13 22.2 72 36 6.8 44.3 0 0
21:36 1022 30.18 851 25.13 22.2 71.9 37 6.9 44.4 0 0
21:37 1022 30.18 851 25.13 22.2 72 37 6.9 44.4 0 0
21:38 1022 30.18 851 25.13 22.3 72.2 36 6.8 44.2 0 0
21:39 1022 30.18 851 25.13 22.3 72.1 37 7 44.5 0 0
21:40 1022 30.18 851 25.13 22.2 71.9 37 6.9 44.4 0 0
21:41 1022 30.18 851 25.13 22.2 71.9 37 6.9 44.5 0 0
21:42 1022 30.18 851 25.13 22.2 71.9 37 6.8 44.3 0 0
21:43 1022 30.18 851 25.13 22.3 72.1 36 6.7 44 0 0
21:44 1022 30.18 851 25.13 22.3 72.2 36 6.8 44.3 0 0
21:45 1022 30.18 851 25.13 22.3 72.2 36 6.8 44.2 0 0
21:46 1022 30.18 851 25.13 22.3 72.2 36 6.8 44.2 0 0
21:47 1022 30.18 851 25.13 22.3 72.1 36 6.8 44.3 0 0
21:48 1022 30.18 851 25.13 22.2 72 37 6.8 44.3 0 0
21:49 1022 30.18 851 25.13 22.2 72 36 6.8 44.2 0 0
21:50 1022 30.18 851 25.13 22.3 72.1 36 6.9 44.4 0 0
21:51 1022 30.18 851 25.13 22.3 72.1 36 6.8 44.3 0 0
21:52 1022 30.18 851 25.13 22.3 72.2 36 6.8 44.3 0 0
21:53 1022 30.18 851 25.13 22.3 72.1 36 6.7 44 0 0
21:54 1022 30.18 851 25.13 22.3 72.2 36 6.7 44.1 0 0
21:55 1022 30.18 851 25.13 22.4 72.3 36 6.9 44.3 0 0
21:56 1022 30.18 851 25.13 22.4 72.3 36 6.9 44.4 0 0
21:57 1022 30.18 851 25.13 22.3 72.1 37 6.9 44.4 0 0
21:58 1022 30.18 851 25.13 22.2 71.9 37 6.9 44.3 0 0
21:59 1022 30.18 851 25.13 22.1 71.8 37 6.8 44.3 0 0
22:00 1022 30.18 851 25.13 22.1 71.7 37 6.9 44.4 0 0
22:01 1022 30.18 851 25.13 22.1 71.7 37 6.8 44.2 0 0
22:02 1022 30.18 851 25.13 22.1 71.8 37 6.8 44.3 0 0
22:03 1022 30.18 851 25.13 22 71.7 37 6.9 44.3 0 0
22:04 1022 30.18 851 25.13 22 71.7 37 7 44.5 0 0
22:05 1022 30.18 851 25.13 22 71.5 37 7 44.5 0 0
22:06 1022 30.18 851 25.13 21.9 71.4 38 7 44.5 0 0
22:07 1022 30.18 851 25.13 21.9 71.3 38 7 44.6 0 0
22:08 1022 30.18 851 25.13 21.8 71.3 38 6.9 44.4 0 0
22:09 1022 30.18 851 25.13 21.9 71.4 37 6.9 44.4 0 0
22:10 1022 30.18 851 25.13 21.8 71.3 37 6.9 44.4 0 0
22:11 1022 30.18 851 25.13 21.8 71.3 38 6.9 44.4 0 0
22:12 1022 30.18 851 25.13 21.9 71.3 38 6.9 44.5 0 0
22:13 1022 30.18 851 25.13 21.8 71.3 37 6.8 44.3 0 0
22:14 1022 30.18 851 25.13 21.8 71.3 38 6.9 44.5 0 0
22:15 1022 30.18 851 25.13 21.8 71.2 38 6.9 44.5 0 0
22:16 1022 30.18 851 25.13 21.8 71.2 38 6.9 44.5 0 0
22:17 1022 30.18 851 25.13 21.7 71.1 38 7 44.5 0 0
22:18 1022 30.18 851 25.13 21.7 71.1 38 6.9 44.3 0 0
22:19 1022 30.18 851 25.13 21.8 71.2 38 7 44.6 0 0
22:20 1022 30.18 851 25.13 21.7 71 38 7 44.6 0 0
22:21 1022 30.18 851 25.13 21.7 71 38 6.8 44.3 0 0
22:22 1022 30.18 851 25.13 21.7 71 38 7 44.6 0 0
22:23 1022 30.18 851 25.13 21.6 70.9 38 6.9 44.5 0 0
22:24 1022 30.18 851 25.13 21.7 71 38 6.9 44.4 0 0
22:25 1022 30.18 851 25.13 21.6 71 38 6.9 44.3 0 0
22:26 1022 30.18 851 25.13 21.7 71 38 7 44.6 0 0
22:27 1022 30.18 851 25.13 21.6 70.9 38 6.9 44.5 0 0
22:28 1022 30.18 851 25.13 21.5 70.8 38 6.8 44.3 0 0
22:29 1022 30.18 851 25.13 21.6 70.9 38 6.9 44.3 0 0
22:30 1022 30.18 851 25.13 21.6 70.9 38 6.9 44.4 0 0
22:31 1022 30.18 851 25.13 21.6 70.9 38 6.9 44.5 0 0
22:32 1022 30.18 851 25.13 21.6 70.8 38 6.8 44.3 0 0
22:33 1022 30.18 851 25.13 21.7 71.1 38 6.8 44.3 0 0
22:34 1022 30.18 851 25.13 21.7 71.1 38 6.9 44.5 0 0
22:35 1022 30.18 851 25.13 21.6 70.9 38 6.9 44.5 0 0
22:36 1022 30.18 851 25.13 21.6 70.9 38 7 44.7 0 0
22:37 1022 30.18 851 25.13 21.6 70.9 38 7 44.6 0 0
22:38 1022 30.18 851 25.13 21.6 70.9 38 7 44.6 0 0
22:39 1022 30.18 851 25.13 21.7 71 38 7 44.5 0 0
22:40 1022 30.18 851 25.13 21.7 71 38 7 44.5 0 0
22:41 1022 30.18 851 25.13 21.6 71 39 7.1 44.8 0 0
22:42 1022 30.18 851 25.13 21.6 70.8 39 7 44.7 0 0
22:43 1022 30.18 851 25.13 21.6 70.8 39 7.1 44.8 0 0
22:44 1022 30.18 851 25.13 21.6 70.8 38 6.9 44.5 0 0
22:45 1022 30.18 851 25.13 21.6 70.9 38 7 44.6 0 0
22:46 1022 30.18 851 25.13 21.6 71 39 7.1 44.8 0 0
22:47 1022 30.18 851 25.13 21.6 70.9 39 7.1 44.7 0 0
22:48 1022 30.18 851 25.13 21.6 70.9 39 7.1 44.8 0 0
22:49 1022 30.18 851 25.13 21.6 71 38 7.1 44.7 0 0
22:50 1022 30.18 851 25.13 21.6 71 39 7.1 44.8 0 0
22:51 1022 30.18 851 25.13 21.6 71 39 7.1 44.9 0 0
22:52 1022 30.18 851 25.13 21.6 70.9 39 7.1 44.8 0 0
22:53 1022 30.18 851 25.13 21.6 70.8 39 7.2 45 0 0
22:54 1022 30.18 851 25.13 21.5 70.7 39 7.3 45.1 0 0
22:55 1022 30.18 851 25.13 21.4 70.6 40 7.3 45.1 0 0
22:56 1022 30.18 851 25.13 21.4 70.6 40 7.3 45.1 0 0
22:57 1022 30.18 851 25.13 21.4 70.4 40 7.4 45.3 0 0
22:58 1022 30.18 851 25.13 21.3 70.4 40 7.2 45 0 0
22:59 1022 30.18 851 25.13 21.4 70.5 40 7.3 45.2 0 0
23:00 1022 30.18 851 25.13 21.4 70.5 40 7.2 45 0 0
23:01 1022 30.18 851 25.13 21.4 70.5 40 7.3 45.1 0 0
23:02 1022 30.18 851 25.13 21.4 70.5 40 7.3 45.1 0 0
23:03 1022 30.18 851 25.13 21.3 70.4 40 7.4 45.3 0 0
23:04 1022 30.18 851 25.13 21.3 70.4 40 7.3 45.2 0 0
23:05 1022 30.18 851 25.13 21.3 70.3 40 7.4 45.2 0 0
23:06 1022 30.18 851 25.13 21.3 70.3 40 7.3 45.2 0 0
23:07 1022 30.18 851 25.13 21.3 70.4 40 7.5 45.4 0 0
23:08 1022 30.18 852 25.16 21.3 70.3 40 7.4 45.4 0 0
23:09 1022 30.18 852 25.16 21.2 70.2 41 7.5 45.4 0 0
23:10 1022 30.18 852 25.16 21.3 70.3 40 7.4 45.3 0 0
23:11 1022 30.18 852 25.16 21.3 70.3 40 7.4 45.3 0 0
23:12 1022 30.18 852 25.16 21.3 70.3 41 7.6 45.7 0 0
23:13 1022 30.18 851 25.13 21.1 70 41 7.6 45.7 0 0
23:14 1022 30.18 852 25.16 21.1 70 41 7.6 45.6 0 0
23:15 1022 30.18 851 25.13 21.1 69.9 41 7.5 45.6 0 0
23:16 1022 30.18 851 25.13 21.1 70 41 7.5 45.6 0 0
23:17 1022 30.18 851 25.13 21.1 70 41 7.6 45.6 0 0
23:18 1022 30.18 851 25.13 21.1 70 41 7.6 45.7 0 0
23:19 1022 30.18 851 25.13 21.1 69.9 41 7.7 45.8 0 0
23:20 1022 30.18 851 25.13 21.1 70 42 7.7 45.8 0 0
23:21 1022 30.18 851 25.13 21 69.9 42 7.6 45.8 0 0
23:22 1022 30.18 851 25.13 21 69.8 42 7.8 46 0 0
23:23 1022 30.18 851 25.13 20.9 69.7 42 7.7 45.9 0 0
23:24 1022 30.18 851 25.13 20.9 69.7 42 7.7 45.9 0 0
23:25 1022 30.18 851 25.13 21 69.8 42 7.8 46 0 0
23:26 1022 30.18 851 25.13 21 69.7 42 7.8 46 0 0
23:27 1022 30.18 851 25.13 20.9 69.7 42 7.8 46.1 0 0
23:28 1022 30.18 851 25.13 20.9 69.6 42 7.8 46 0 0
23:29 1022 30.18 851 25.13 20.9 69.7 42 7.8 46 0 0
23:30 1022 30.18 851 25.13 20.9 69.7 42 7.9 46.2 0 0
23:31 1022 30.18 851 25.13 20.9 69.6 43 8 46.3 0 0
23:32 1022 30.18 851 25.13 20.8 69.4 43 8 46.4 0 0
23:33 1022 30.18 851 25.13 20.6 69.1 43 7.9 46.2 0 0
23:34 1022 30.18 851 25.13 20.7 69.2 43 7.9 46.1 0 0
23:35 1022 30.18 852 25.16 20.7 69.3 43 8 46.4 0 0
23:36 1022 30.18 852 25.16 20.7 69.2 43 7.9 46.3 0 0
23:37 1022 30.18 852 25.16 20.6 69.1 44 8 46.3 0 0
23:38 1022 30.18 851 25.13 20.6 69.1 44 8 46.5 0 0
23:39 1022 30.18 852 25.16 20.6 69.1 44 7.9 46.3 0 0
23:40 1022 30.18 852 25.16 20.7 69.2 44 8 46.4 0 0
23:41 1022 30.18 852 25.16 20.7 69.2 43 7.9 46.3 0 0
23:42 1022 30.18 852 25.16 20.6 69.2 44 8 46.4 0 0
23:43 1022 30.18 852 25.16 20.6 69 44 8 46.5 0 0
23:44 1022 30.18 852 25.16 20.5 68.9 44 8 46.5 0 0
23:45 1022 30.18 851 25.13 20.5 68.9 44 8 46.5 0 0
23:46 1022 30.18 852 25.16 20.5 68.9 44 8 46.5 0 0
23:47 1022 30.18 852 25.16 20.5 68.9 44 8.1 46.6 0 0
23:48 1022 30.18 852 25.16 20.5 68.8 44 8.1 46.6 0 0
23:49 1022 30.18 852 25.16 20.4 68.7 45 8.1 46.7 0 0
23:50 1022 30.18 851 25.13 20.4 68.7 45 8.2 46.7 0 0
23:51 1022 30.18 851 25.13 20.4 68.7 45 8.1 46.6 0 0
23:52 1022 30.18 852 25.16 20.5 68.8 45 8.1 46.6 0 0
23:53 1022 30.18 852 25.16 20.5 68.8 44 8.1 46.5 0 0
23:54 1022 30.18 852 25.16 20.4 68.8 45 8.2 46.7 0 0
23:55 1022 30.18 852 25.16 20.4 68.7 45 8.2 46.7 0 0
23:56 1022 30.18 852 25.16 20.3 68.5 45 8.2 46.8 0 0
23:57 1022 30.18 852 25.16 20.3 68.5 46 8.3 46.9 0 0
23:58 1022 30.18 852 25.16 20.2 68.4 45 8.2 46.8 0 0
23:59 1022 30.18 852 25.16 20.2 68.3 46 8.2 46.8 0 0
24:00 1022 30.18 852 25.16 20.2 68.4 45 8.2 46.7 0 0